<?xml version="1.0" encoding="UTF-8" standalone="no" ?>
<gpx xmlns="http://www.topografix.com/GPX/1/1" xmlns:xsi="http://www.w3.org/2001/XMLSchema-instance" xsi:schemaLocation="http://www.topografix.com/GPX/1/1 http://www.topografix.com/GPX/1/1/gpx.xsd" version="1.1" creator="VisuGPX - https://www.visugpx.com">
  <metadata>
    <name>Fontenilles- Lias 13km  VOK</name>
    <desc><![CDATA[
Total: 13.2km]]></desc>
  </metadata>
  <trk>
    <name><![CDATA[Randonnée du 27/01/2020 à 08:33]]></name>
    <desc><![CDATA[Total: 13.2km]]></desc>
    <trkseg>
      <trkpt lat="43.55748" lon="1.17707">
        <ele>203</ele>
        <time>2020-01-28T15:30:21Z</time>
      </trkpt>
      <trkpt lat="43.55742" lon="1.17696">
        <ele>199</ele>
        <time>2020-01-28T15:30:29Z</time>
      </trkpt>
      <trkpt lat="43.55745" lon="1.17684">
        <ele>198</ele>
        <time>2020-01-28T15:30:36Z</time>
      </trkpt>
      <trkpt lat="43.55748" lon="1.17672">
        <ele>198</ele>
        <time>2020-01-28T15:30:44Z</time>
      </trkpt>
      <trkpt lat="43.55751" lon="1.17659">
        <ele>200</ele>
        <time>2020-01-28T15:30:52Z</time>
      </trkpt>
      <trkpt lat="43.55753" lon="1.17647">
        <ele>202</ele>
        <time>2020-01-28T15:30:59Z</time>
      </trkpt>
      <trkpt lat="43.55755" lon="1.17635">
        <ele>201</ele>
        <time>2020-01-28T15:31:07Z</time>
      </trkpt>
      <trkpt lat="43.55759" lon="1.17622">
        <ele>202</ele>
        <time>2020-01-28T15:31:15Z</time>
      </trkpt>
      <trkpt lat="43.55763" lon="1.17608">
        <ele>202</ele>
        <time>2020-01-28T15:31:23Z</time>
      </trkpt>
      <trkpt lat="43.55766" lon="1.17595">
        <ele>202</ele>
        <time>2020-01-28T15:31:31Z</time>
      </trkpt>
      <trkpt lat="43.55767" lon="1.17583">
        <ele>202</ele>
        <time>2020-01-28T15:31:38Z</time>
      </trkpt>
      <trkpt lat="43.5577" lon="1.17571">
        <ele>204</ele>
        <time>2020-01-28T15:31:46Z</time>
      </trkpt>
      <trkpt lat="43.55774" lon="1.17558">
        <ele>205</ele>
        <time>2020-01-28T15:31:54Z</time>
      </trkpt>
      <trkpt lat="43.55777" lon="1.17545">
        <ele>207</ele>
        <time>2020-01-28T15:32:02Z</time>
      </trkpt>
      <trkpt lat="43.5578" lon="1.17534">
        <ele>209</ele>
        <time>2020-01-28T15:32:09Z</time>
      </trkpt>
      <trkpt lat="43.55782" lon="1.17521">
        <ele>209</ele>
        <time>2020-01-28T15:32:17Z</time>
      </trkpt>
      <trkpt lat="43.55787" lon="1.1751">
        <ele>208</ele>
        <time>2020-01-28T15:32:24Z</time>
      </trkpt>
      <trkpt lat="43.55789" lon="1.17497">
        <ele>206</ele>
        <time>2020-01-28T15:32:32Z</time>
      </trkpt>
      <trkpt lat="43.55793" lon="1.17485">
        <ele>206</ele>
        <time>2020-01-28T15:32:40Z</time>
      </trkpt>
      <trkpt lat="43.55795" lon="1.17472">
        <ele>205</ele>
        <time>2020-01-28T15:32:48Z</time>
      </trkpt>
      <trkpt lat="43.55799" lon="1.1746">
        <ele>205</ele>
        <time>2020-01-28T15:32:55Z</time>
      </trkpt>
      <trkpt lat="43.55802" lon="1.17448">
        <ele>205</ele>
        <time>2020-01-28T15:33:02Z</time>
      </trkpt>
      <trkpt lat="43.55802" lon="1.17435">
        <ele>205</ele>
        <time>2020-01-28T15:33:10Z</time>
      </trkpt>
      <trkpt lat="43.55804" lon="1.17423">
        <ele>205</ele>
        <time>2020-01-28T15:33:17Z</time>
      </trkpt>
      <trkpt lat="43.55806" lon="1.1741">
        <ele>205</ele>
        <time>2020-01-28T15:33:25Z</time>
      </trkpt>
      <trkpt lat="43.5581" lon="1.17397">
        <ele>206</ele>
        <time>2020-01-28T15:33:33Z</time>
      </trkpt>
      <trkpt lat="43.55812" lon="1.17385">
        <ele>207</ele>
        <time>2020-01-28T15:33:41Z</time>
      </trkpt>
      <trkpt lat="43.55816" lon="1.17371">
        <ele>209</ele>
        <time>2020-01-28T15:33:49Z</time>
      </trkpt>
      <trkpt lat="43.55818" lon="1.17359">
        <ele>209</ele>
        <time>2020-01-28T15:33:57Z</time>
      </trkpt>
      <trkpt lat="43.55822" lon="1.17346">
        <ele>209</ele>
        <time>2020-01-28T15:34:04Z</time>
      </trkpt>
      <trkpt lat="43.55827" lon="1.17335">
        <ele>210</ele>
        <time>2020-01-28T15:34:12Z</time>
      </trkpt>
      <trkpt lat="43.55831" lon="1.17324">
        <ele>210</ele>
        <time>2020-01-28T15:34:20Z</time>
      </trkpt>
      <trkpt lat="43.55834" lon="1.17311">
        <ele>210</ele>
        <time>2020-01-28T15:34:27Z</time>
      </trkpt>
      <trkpt lat="43.55837" lon="1.17299">
        <ele>211</ele>
        <time>2020-01-28T15:34:35Z</time>
      </trkpt>
      <trkpt lat="43.5584" lon="1.17286">
        <ele>210</ele>
        <time>2020-01-28T15:34:43Z</time>
      </trkpt>
      <trkpt lat="43.55842" lon="1.17273">
        <ele>209</ele>
        <time>2020-01-28T15:34:51Z</time>
      </trkpt>
      <trkpt lat="43.55872" lon="1.17155">
        <ele>206</ele>
        <time>2020-01-28T15:36:03Z</time>
      </trkpt>
      <trkpt lat="43.55874" lon="1.17142">
        <ele>199</ele>
        <time>2020-01-28T15:36:13Z</time>
      </trkpt>
      <trkpt lat="43.55879" lon="1.17129">
        <ele>199</ele>
        <time>2020-01-28T15:36:21Z</time>
      </trkpt>
      <trkpt lat="43.55883" lon="1.17117">
        <ele>203</ele>
        <time>2020-01-28T15:36:29Z</time>
      </trkpt>
      <trkpt lat="43.55886" lon="1.17104">
        <ele>205</ele>
        <time>2020-01-28T15:36:37Z</time>
      </trkpt>
      <trkpt lat="43.5589" lon="1.17092">
        <ele>206</ele>
        <time>2020-01-28T15:36:45Z</time>
      </trkpt>
      <trkpt lat="43.5589" lon="1.17077">
        <ele>206</ele>
        <time>2020-01-28T15:36:54Z</time>
      </trkpt>
      <trkpt lat="43.55892" lon="1.17064">
        <ele>206</ele>
        <time>2020-01-28T15:37:01Z</time>
      </trkpt>
      <trkpt lat="43.55894" lon="1.17051">
        <ele>206</ele>
        <time>2020-01-28T15:37:10Z</time>
      </trkpt>
      <trkpt lat="43.55901" lon="1.17041">
        <ele>207</ele>
        <time>2020-01-28T15:37:17Z</time>
      </trkpt>
      <trkpt lat="43.55906" lon="1.17029">
        <ele>208</ele>
        <time>2020-01-28T15:37:25Z</time>
      </trkpt>
      <trkpt lat="43.5591" lon="1.17018">
        <ele>209</ele>
        <time>2020-01-28T15:37:33Z</time>
      </trkpt>
      <trkpt lat="43.55913" lon="1.17005">
        <ele>208</ele>
        <time>2020-01-28T15:37:41Z</time>
      </trkpt>
      <trkpt lat="43.55917" lon="1.16993">
        <ele>209</ele>
        <time>2020-01-28T15:37:48Z</time>
      </trkpt>
      <trkpt lat="43.55915" lon="1.16981">
        <ele>208</ele>
        <time>2020-01-28T15:37:56Z</time>
      </trkpt>
      <trkpt lat="43.55917" lon="1.16967">
        <ele>208</ele>
        <time>2020-01-28T15:38:04Z</time>
      </trkpt>
      <trkpt lat="43.55925" lon="1.16959">
        <ele>208</ele>
        <time>2020-01-28T15:38:12Z</time>
      </trkpt>
      <trkpt lat="43.55934" lon="1.16961">
        <ele>207</ele>
        <time>2020-01-28T15:38:19Z</time>
      </trkpt>
      <trkpt lat="43.55944" lon="1.16964">
        <ele>207</ele>
        <time>2020-01-28T15:38:27Z</time>
      </trkpt>
      <trkpt lat="43.55954" lon="1.16964">
        <ele>207</ele>
        <time>2020-01-28T15:38:35Z</time>
      </trkpt>
      <trkpt lat="43.55963" lon="1.16969">
        <ele>207</ele>
        <time>2020-01-28T15:38:43Z</time>
      </trkpt>
      <trkpt lat="43.55972" lon="1.16971">
        <ele>207</ele>
        <time>2020-01-28T15:38:50Z</time>
      </trkpt>
      <trkpt lat="43.55982" lon="1.16977">
        <ele>207</ele>
        <time>2020-01-28T15:38:58Z</time>
      </trkpt>
      <trkpt lat="43.55991" lon="1.16979">
        <ele>206</ele>
        <time>2020-01-28T15:39:06Z</time>
      </trkpt>
      <trkpt lat="43.56" lon="1.1698">
        <ele>206</ele>
        <time>2020-01-28T15:39:13Z</time>
      </trkpt>
      <trkpt lat="43.5601" lon="1.16982">
        <ele>206</ele>
        <time>2020-01-28T15:39:21Z</time>
      </trkpt>
      <trkpt lat="43.5602" lon="1.16983">
        <ele>207</ele>
        <time>2020-01-28T15:39:30Z</time>
      </trkpt>
      <trkpt lat="43.56031" lon="1.16985">
        <ele>207</ele>
        <time>2020-01-28T15:39:38Z</time>
      </trkpt>
      <trkpt lat="43.56041" lon="1.16988">
        <ele>206</ele>
        <time>2020-01-28T15:39:47Z</time>
      </trkpt>
      <trkpt lat="43.56051" lon="1.16991">
        <ele>206</ele>
        <time>2020-01-28T15:39:55Z</time>
      </trkpt>
      <trkpt lat="43.5606" lon="1.16992">
        <ele>205</ele>
        <time>2020-01-28T15:40:02Z</time>
      </trkpt>
      <trkpt lat="43.56074" lon="1.16995">
        <ele>209</ele>
        <time>2020-01-28T15:40:13Z</time>
      </trkpt>
      <trkpt lat="43.56075" lon="1.16976">
        <ele>205</ele>
        <time>2020-01-28T15:40:25Z</time>
      </trkpt>
      <trkpt lat="43.56075" lon="1.16963">
        <ele>204</ele>
        <time>2020-01-28T15:40:32Z</time>
      </trkpt>
      <trkpt lat="43.56077" lon="1.1695">
        <ele>204</ele>
        <time>2020-01-28T15:40:40Z</time>
      </trkpt>
      <trkpt lat="43.56077" lon="1.16936">
        <ele>204</ele>
        <time>2020-01-28T15:40:48Z</time>
      </trkpt>
      <trkpt lat="43.56078" lon="1.16923">
        <ele>204</ele>
        <time>2020-01-28T15:40:56Z</time>
      </trkpt>
      <trkpt lat="43.56079" lon="1.16909">
        <ele>201</ele>
        <time>2020-01-28T15:41:04Z</time>
      </trkpt>
      <trkpt lat="43.5608" lon="1.16896">
        <ele>200</ele>
        <time>2020-01-28T15:41:12Z</time>
      </trkpt>
      <trkpt lat="43.56081" lon="1.16882">
        <ele>199</ele>
        <time>2020-01-28T15:41:20Z</time>
      </trkpt>
      <trkpt lat="43.56087" lon="1.16781">
        <ele>206</ele>
        <time>2020-01-28T15:42:19Z</time>
      </trkpt>
      <trkpt lat="43.56084" lon="1.16769">
        <ele>210</ele>
        <time>2020-01-28T15:42:27Z</time>
      </trkpt>
      <trkpt lat="43.56091" lon="1.16701">
        <ele>211.9</ele>
        <time>2020-01-28T15:43:07Z</time>
      </trkpt>
      <trkpt lat="43.56093" lon="1.16662">
        <ele>212</ele>
        <time>2020-01-28T15:43:30Z</time>
      </trkpt>
      <trkpt lat="43.56094" lon="1.16647">
        <ele>212</ele>
        <time>2020-01-28T15:43:39Z</time>
      </trkpt>
      <trkpt lat="43.56094" lon="1.16635">
        <ele>212</ele>
        <time>2020-01-28T15:43:46Z</time>
      </trkpt>
      <trkpt lat="43.56095" lon="1.16621">
        <ele>214</ele>
        <time>2020-01-28T15:43:54Z</time>
      </trkpt>
      <trkpt lat="43.56093" lon="1.16608">
        <ele>213</ele>
        <time>2020-01-28T15:44:02Z</time>
      </trkpt>
      <trkpt lat="43.56095" lon="1.16595">
        <ele>212</ele>
        <time>2020-01-28T15:44:09Z</time>
      </trkpt>
      <trkpt lat="43.56095" lon="1.16582">
        <ele>212</ele>
        <time>2020-01-28T15:44:17Z</time>
      </trkpt>
      <trkpt lat="43.56097" lon="1.16568">
        <ele>211</ele>
        <time>2020-01-28T15:44:25Z</time>
      </trkpt>
      <trkpt lat="43.56099" lon="1.16515">
        <ele>219.6</ele>
        <time>2020-01-28T15:44:56Z</time>
      </trkpt>
      <trkpt lat="43.56116" lon="1.1641">
        <ele>220.8</ele>
        <time>2020-01-28T15:45:59Z</time>
      </trkpt>
      <trkpt lat="43.56123" lon="1.16346">
        <ele>221.7</ele>
        <time>2020-01-28T15:46:37Z</time>
      </trkpt>
      <trkpt lat="43.56129" lon="1.16296">
        <ele>221.7</ele>
        <time>2020-01-28T15:47:06Z</time>
      </trkpt>
      <trkpt lat="43.5613" lon="1.1625">
        <ele>221.9</ele>
        <time>2020-01-28T15:47:33Z</time>
      </trkpt>
      <trkpt lat="43.56134" lon="1.16199">
        <ele>222.5</ele>
        <time>2020-01-28T15:48:03Z</time>
      </trkpt>
      <trkpt lat="43.56134" lon="1.16176">
        <ele>222.5</ele>
        <time>2020-01-28T15:48:16Z</time>
      </trkpt>
      <trkpt lat="43.56134" lon="1.16119">
        <ele>223.9</ele>
        <time>2020-01-28T15:48:49Z</time>
      </trkpt>
      <trkpt lat="43.56135" lon="1.16097">
        <ele>184</ele>
        <time>2020-01-28T15:49:02Z</time>
      </trkpt>
      <trkpt lat="43.56142" lon="1.16089">
        <ele>180</ele>
        <time>2020-01-28T15:49:10Z</time>
      </trkpt>
      <trkpt lat="43.56151" lon="1.16087">
        <ele>176</ele>
        <time>2020-01-28T15:49:18Z</time>
      </trkpt>
      <trkpt lat="43.5616" lon="1.16091">
        <ele>171</ele>
        <time>2020-01-28T15:49:26Z</time>
      </trkpt>
      <trkpt lat="43.56169" lon="1.16095">
        <ele>172</ele>
        <time>2020-01-28T15:49:34Z</time>
      </trkpt>
      <trkpt lat="43.56178" lon="1.16096">
        <ele>174</ele>
        <time>2020-01-28T15:49:41Z</time>
      </trkpt>
      <trkpt lat="43.56187" lon="1.16097">
        <ele>178</ele>
        <time>2020-01-28T15:49:49Z</time>
      </trkpt>
      <trkpt lat="43.56197" lon="1.16099">
        <ele>183</ele>
        <time>2020-01-28T15:49:58Z</time>
      </trkpt>
      <trkpt lat="43.56207" lon="1.161">
        <ele>187</ele>
        <time>2020-01-28T15:50:06Z</time>
      </trkpt>
      <trkpt lat="43.56212" lon="1.16101">
        <ele>221.5</ele>
        <time>2020-01-28T15:50:11Z</time>
      </trkpt>
      <trkpt lat="43.56223" lon="1.16103">
        <ele>221</ele>
        <time>2020-01-28T15:50:19Z</time>
      </trkpt>
      <trkpt lat="43.56273" lon="1.16111">
        <ele>218.2</ele>
        <time>2020-01-28T15:51:00Z</time>
      </trkpt>
      <trkpt lat="43.56313" lon="1.16116">
        <ele>217</ele>
        <time>2020-01-28T15:51:32Z</time>
      </trkpt>
      <trkpt lat="43.56383" lon="1.16126">
        <ele>214.6</ele>
        <time>2020-01-28T15:52:28Z</time>
      </trkpt>
      <trkpt lat="43.56408" lon="1.16138">
        <ele>214</ele>
        <time>2020-01-28T15:52:49Z</time>
      </trkpt>
      <trkpt lat="43.56419" lon="1.16134">
        <ele>213.8</ele>
        <time>2020-01-28T15:52:58Z</time>
      </trkpt>
      <trkpt lat="43.56468" lon="1.16154">
        <ele>214.4</ele>
        <time>2020-01-28T15:53:39Z</time>
      </trkpt>
      <trkpt lat="43.56516" lon="1.1617">
        <ele>214.5</ele>
        <time>2020-01-28T15:54:19Z</time>
      </trkpt>
      <trkpt lat="43.56559" lon="1.1619">
        <ele>214</ele>
        <time>2020-01-28T15:54:55Z</time>
      </trkpt>
      <trkpt lat="43.56533" lon="1.16338">
        <ele>213</ele>
        <time>2020-01-28T15:56:24Z</time>
      </trkpt>
      <trkpt lat="43.56516" lon="1.16453">
        <ele>203</ele>
        <time>2020-01-28T15:57:32Z</time>
      </trkpt>
      <trkpt lat="43.56515" lon="1.16466">
        <ele>204</ele>
        <time>2020-01-28T15:57:40Z</time>
      </trkpt>
      <trkpt lat="43.56514" lon="1.16479">
        <ele>205</ele>
        <time>2020-01-28T15:57:47Z</time>
      </trkpt>
      <trkpt lat="43.56512" lon="1.16493">
        <ele>205</ele>
        <time>2020-01-28T15:57:55Z</time>
      </trkpt>
      <trkpt lat="43.56512" lon="1.16506">
        <ele>205</ele>
        <time>2020-01-28T15:58:03Z</time>
      </trkpt>
      <trkpt lat="43.56511" lon="1.16519">
        <ele>203</ele>
        <time>2020-01-28T15:58:11Z</time>
      </trkpt>
      <trkpt lat="43.56508" lon="1.16532">
        <ele>201</ele>
        <time>2020-01-28T15:58:19Z</time>
      </trkpt>
      <trkpt lat="43.56502" lon="1.16589">
        <ele>212</ele>
        <time>2020-01-28T15:58:52Z</time>
      </trkpt>
      <trkpt lat="43.56634" lon="1.16633">
        <ele>213.8</ele>
        <time>2020-01-28T16:00:41Z</time>
      </trkpt>
      <trkpt lat="43.56655" lon="1.16633">
        <ele>201</ele>
        <time>2020-01-28T16:00:58Z</time>
      </trkpt>
      <trkpt lat="43.56665" lon="1.16633">
        <ele>204</ele>
        <time>2020-01-28T16:01:05Z</time>
      </trkpt>
      <trkpt lat="43.56673" lon="1.16638">
        <ele>207</ele>
        <time>2020-01-28T16:01:13Z</time>
      </trkpt>
      <trkpt lat="43.56682" lon="1.16637">
        <ele>207</ele>
        <time>2020-01-28T16:01:21Z</time>
      </trkpt>
      <trkpt lat="43.56691" lon="1.16633">
        <ele>207</ele>
        <time>2020-01-28T16:01:28Z</time>
      </trkpt>
      <trkpt lat="43.567" lon="1.16624">
        <ele>207</ele>
        <time>2020-01-28T16:01:37Z</time>
      </trkpt>
      <trkpt lat="43.56709" lon="1.16627">
        <ele>205</ele>
        <time>2020-01-28T16:01:45Z</time>
      </trkpt>
      <trkpt lat="43.56719" lon="1.16632">
        <ele>208</ele>
        <time>2020-01-28T16:01:53Z</time>
      </trkpt>
      <trkpt lat="43.56727" lon="1.16638">
        <ele>211</ele>
        <time>2020-01-28T16:02:01Z</time>
      </trkpt>
      <trkpt lat="43.56733" lon="1.16647">
        <ele>210</ele>
        <time>2020-01-28T16:02:08Z</time>
      </trkpt>
      <trkpt lat="43.56743" lon="1.16649">
        <ele>210</ele>
        <time>2020-01-28T16:02:16Z</time>
      </trkpt>
      <trkpt lat="43.56753" lon="1.16647">
        <ele>209</ele>
        <time>2020-01-28T16:02:24Z</time>
      </trkpt>
      <trkpt lat="43.56762" lon="1.1665">
        <ele>209</ele>
        <time>2020-01-28T16:02:31Z</time>
      </trkpt>
      <trkpt lat="43.56772" lon="1.16649">
        <ele>209</ele>
        <time>2020-01-28T16:02:39Z</time>
      </trkpt>
      <trkpt lat="43.56781" lon="1.16649">
        <ele>210</ele>
        <time>2020-01-28T16:02:47Z</time>
      </trkpt>
      <trkpt lat="43.5679" lon="1.1665">
        <ele>210</ele>
        <time>2020-01-28T16:02:54Z</time>
      </trkpt>
      <trkpt lat="43.56799" lon="1.16647">
        <ele>211</ele>
        <time>2020-01-28T16:03:01Z</time>
      </trkpt>
      <trkpt lat="43.56808" lon="1.16651">
        <ele>214</ele>
        <time>2020-01-28T16:03:10Z</time>
      </trkpt>
      <trkpt lat="43.56818" lon="1.16649">
        <ele>216</ele>
        <time>2020-01-28T16:03:18Z</time>
      </trkpt>
      <trkpt lat="43.56828" lon="1.16648">
        <ele>219</ele>
        <time>2020-01-28T16:03:25Z</time>
      </trkpt>
      <trkpt lat="43.56838" lon="1.1665">
        <ele>222</ele>
        <time>2020-01-28T16:03:34Z</time>
      </trkpt>
      <trkpt lat="43.56848" lon="1.1665">
        <ele>225</ele>
        <time>2020-01-28T16:03:42Z</time>
      </trkpt>
      <trkpt lat="43.56857" lon="1.16649">
        <ele>229</ele>
        <time>2020-01-28T16:03:50Z</time>
      </trkpt>
      <trkpt lat="43.56867" lon="1.1665">
        <ele>230</ele>
        <time>2020-01-28T16:03:58Z</time>
      </trkpt>
      <trkpt lat="43.56876" lon="1.16645">
        <ele>232</ele>
        <time>2020-01-28T16:04:06Z</time>
      </trkpt>
      <trkpt lat="43.56885" lon="1.16645">
        <ele>233</ele>
        <time>2020-01-28T16:04:13Z</time>
      </trkpt>
      <trkpt lat="43.56894" lon="1.16647">
        <ele>234</ele>
        <time>2020-01-28T16:04:21Z</time>
      </trkpt>
      <trkpt lat="43.56904" lon="1.16647">
        <ele>235</ele>
        <time>2020-01-28T16:04:29Z</time>
      </trkpt>
      <trkpt lat="43.56913" lon="1.16645">
        <ele>236</ele>
        <time>2020-01-28T16:04:36Z</time>
      </trkpt>
      <trkpt lat="43.56922" lon="1.16646">
        <ele>236</ele>
        <time>2020-01-28T16:04:43Z</time>
      </trkpt>
      <trkpt lat="43.56933" lon="1.16646">
        <ele>234</ele>
        <time>2020-01-28T16:04:52Z</time>
      </trkpt>
      <trkpt lat="43.56943" lon="1.16645">
        <ele>234</ele>
        <time>2020-01-28T16:05:00Z</time>
      </trkpt>
      <trkpt lat="43.56952" lon="1.16647">
        <ele>234</ele>
        <time>2020-01-28T16:05:08Z</time>
      </trkpt>
      <trkpt lat="43.56962" lon="1.16649">
        <ele>233</ele>
        <time>2020-01-28T16:05:16Z</time>
      </trkpt>
      <trkpt lat="43.56971" lon="1.16653">
        <ele>233</ele>
        <time>2020-01-28T16:05:24Z</time>
      </trkpt>
      <trkpt lat="43.56981" lon="1.16656">
        <ele>232</ele>
        <time>2020-01-28T16:05:31Z</time>
      </trkpt>
      <trkpt lat="43.56991" lon="1.1666">
        <ele>231</ele>
        <time>2020-01-28T16:05:40Z</time>
      </trkpt>
      <trkpt lat="43.57" lon="1.1666">
        <ele>230</ele>
        <time>2020-01-28T16:05:47Z</time>
      </trkpt>
      <trkpt lat="43.57009" lon="1.1666">
        <ele>229</ele>
        <time>2020-01-28T16:05:55Z</time>
      </trkpt>
      <trkpt lat="43.57018" lon="1.16665">
        <ele>227</ele>
        <time>2020-01-28T16:06:02Z</time>
      </trkpt>
      <trkpt lat="43.57028" lon="1.16664">
        <ele>226</ele>
        <time>2020-01-28T16:06:10Z</time>
      </trkpt>
      <trkpt lat="43.57037" lon="1.16666">
        <ele>226</ele>
        <time>2020-01-28T16:06:17Z</time>
      </trkpt>
      <trkpt lat="43.57046" lon="1.16665">
        <ele>228</ele>
        <time>2020-01-28T16:06:25Z</time>
      </trkpt>
      <trkpt lat="43.57055" lon="1.16659">
        <ele>228</ele>
        <time>2020-01-28T16:06:33Z</time>
      </trkpt>
      <trkpt lat="43.57062" lon="1.16649">
        <ele>229</ele>
        <time>2020-01-28T16:06:41Z</time>
      </trkpt>
      <trkpt lat="43.57068" lon="1.16638">
        <ele>230</ele>
        <time>2020-01-28T16:06:49Z</time>
      </trkpt>
      <trkpt lat="43.57075" lon="1.16631">
        <ele>231</ele>
        <time>2020-01-28T16:06:56Z</time>
      </trkpt>
      <trkpt lat="43.57075" lon="1.16596">
        <ele>243.2</ele>
        <time>2020-01-28T16:07:17Z</time>
      </trkpt>
      <trkpt lat="43.57086" lon="1.16568">
        <ele>236</ele>
        <time>2020-01-28T16:07:35Z</time>
      </trkpt>
      <trkpt lat="43.57089" lon="1.16556">
        <ele>238</ele>
        <time>2020-01-28T16:07:43Z</time>
      </trkpt>
      <trkpt lat="43.57092" lon="1.16544">
        <ele>240</ele>
        <time>2020-01-28T16:07:50Z</time>
      </trkpt>
      <trkpt lat="43.57098" lon="1.16534">
        <ele>243</ele>
        <time>2020-01-28T16:07:58Z</time>
      </trkpt>
      <trkpt lat="43.57152" lon="1.16491">
        <ele>251.3</ele>
        <time>2020-01-28T16:08:48Z</time>
      </trkpt>
      <trkpt lat="43.57209" lon="1.16455">
        <ele>257.3</ele>
        <time>2020-01-28T16:09:38Z</time>
      </trkpt>
      <trkpt lat="43.57229" lon="1.16418">
        <ele>270</ele>
        <time>2020-01-28T16:10:05Z</time>
      </trkpt>
      <trkpt lat="43.57238" lon="1.16413">
        <ele>271</ele>
        <time>2020-01-28T16:10:13Z</time>
      </trkpt>
      <trkpt lat="43.57246" lon="1.16407">
        <ele>270</ele>
        <time>2020-01-28T16:10:20Z</time>
      </trkpt>
      <trkpt lat="43.57256" lon="1.16403">
        <ele>271</ele>
        <time>2020-01-28T16:10:28Z</time>
      </trkpt>
      <trkpt lat="43.57264" lon="1.16397">
        <ele>272</ele>
        <time>2020-01-28T16:10:36Z</time>
      </trkpt>
      <trkpt lat="43.57274" lon="1.16394">
        <ele>272</ele>
        <time>2020-01-28T16:10:44Z</time>
      </trkpt>
      <trkpt lat="43.57282" lon="1.16388">
        <ele>272</ele>
        <time>2020-01-28T16:10:52Z</time>
      </trkpt>
      <trkpt lat="43.5729" lon="1.1638">
        <ele>271</ele>
        <time>2020-01-28T16:11:00Z</time>
      </trkpt>
      <trkpt lat="43.57297" lon="1.16372">
        <ele>271</ele>
        <time>2020-01-28T16:11:07Z</time>
      </trkpt>
      <trkpt lat="43.57305" lon="1.16365">
        <ele>271</ele>
        <time>2020-01-28T16:11:15Z</time>
      </trkpt>
      <trkpt lat="43.57309" lon="1.16353">
        <ele>271</ele>
        <time>2020-01-28T16:11:22Z</time>
      </trkpt>
      <trkpt lat="43.57318" lon="1.16348">
        <ele>270</ele>
        <time>2020-01-28T16:11:30Z</time>
      </trkpt>
      <trkpt lat="43.57326" lon="1.1634">
        <ele>269</ele>
        <time>2020-01-28T16:11:37Z</time>
      </trkpt>
      <trkpt lat="43.57331" lon="1.16329">
        <ele>269</ele>
        <time>2020-01-28T16:11:45Z</time>
      </trkpt>
      <trkpt lat="43.57339" lon="1.16322">
        <ele>270</ele>
        <time>2020-01-28T16:11:53Z</time>
      </trkpt>
      <trkpt lat="43.57344" lon="1.16312">
        <ele>271</ele>
        <time>2020-01-28T16:12:00Z</time>
      </trkpt>
      <trkpt lat="43.57352" lon="1.16303">
        <ele>272</ele>
        <time>2020-01-28T16:12:08Z</time>
      </trkpt>
      <trkpt lat="43.57359" lon="1.16293">
        <ele>274</ele>
        <time>2020-01-28T16:12:16Z</time>
      </trkpt>
      <trkpt lat="43.57364" lon="1.16283">
        <ele>276</ele>
        <time>2020-01-28T16:12:24Z</time>
      </trkpt>
      <trkpt lat="43.57373" lon="1.16276">
        <ele>276</ele>
        <time>2020-01-28T16:12:32Z</time>
      </trkpt>
      <trkpt lat="43.57382" lon="1.16269">
        <ele>275</ele>
        <time>2020-01-28T16:12:40Z</time>
      </trkpt>
      <trkpt lat="43.57388" lon="1.16259">
        <ele>272</ele>
        <time>2020-01-28T16:12:48Z</time>
      </trkpt>
      <trkpt lat="43.57394" lon="1.16249">
        <ele>269</ele>
        <time>2020-01-28T16:12:56Z</time>
      </trkpt>
      <trkpt lat="43.57399" lon="1.16237">
        <ele>266</ele>
        <time>2020-01-28T16:13:04Z</time>
      </trkpt>
      <trkpt lat="43.57406" lon="1.16226">
        <ele>265</ele>
        <time>2020-01-28T16:13:13Z</time>
      </trkpt>
      <trkpt lat="43.57413" lon="1.16219">
        <ele>265</ele>
        <time>2020-01-28T16:13:20Z</time>
      </trkpt>
      <trkpt lat="43.57417" lon="1.16207">
        <ele>267</ele>
        <time>2020-01-28T16:13:27Z</time>
      </trkpt>
      <trkpt lat="43.57423" lon="1.16197">
        <ele>267</ele>
        <time>2020-01-28T16:13:35Z</time>
      </trkpt>
      <trkpt lat="43.57427" lon="1.16184">
        <ele>265</ele>
        <time>2020-01-28T16:13:43Z</time>
      </trkpt>
      <trkpt lat="43.57433" lon="1.16173">
        <ele>261</ele>
        <time>2020-01-28T16:13:52Z</time>
      </trkpt>
      <trkpt lat="43.57436" lon="1.1616">
        <ele>260</ele>
        <time>2020-01-28T16:14:00Z</time>
      </trkpt>
      <trkpt lat="43.5744" lon="1.16148">
        <ele>259</ele>
        <time>2020-01-28T16:14:08Z</time>
      </trkpt>
      <trkpt lat="43.57445" lon="1.16137">
        <ele>259</ele>
        <time>2020-01-28T16:14:15Z</time>
      </trkpt>
      <trkpt lat="43.57452" lon="1.16129">
        <ele>259</ele>
        <time>2020-01-28T16:14:22Z</time>
      </trkpt>
      <trkpt lat="43.57455" lon="1.16117">
        <ele>258</ele>
        <time>2020-01-28T16:14:30Z</time>
      </trkpt>
      <trkpt lat="43.5746" lon="1.16106">
        <ele>258</ele>
        <time>2020-01-28T16:14:37Z</time>
      </trkpt>
      <trkpt lat="43.57463" lon="1.16093">
        <ele>259</ele>
        <time>2020-01-28T16:14:45Z</time>
      </trkpt>
      <trkpt lat="43.57466" lon="1.16081">
        <ele>262</ele>
        <time>2020-01-28T16:14:53Z</time>
      </trkpt>
      <trkpt lat="43.57471" lon="1.16071">
        <ele>264</ele>
        <time>2020-01-28T16:15:00Z</time>
      </trkpt>
      <trkpt lat="43.57478" lon="1.16062">
        <ele>267</ele>
        <time>2020-01-28T16:15:08Z</time>
      </trkpt>
      <trkpt lat="43.57482" lon="1.1605">
        <ele>271</ele>
        <time>2020-01-28T16:15:16Z</time>
      </trkpt>
      <trkpt lat="43.57487" lon="1.16039">
        <ele>274</ele>
        <time>2020-01-28T16:15:24Z</time>
      </trkpt>
      <trkpt lat="43.5749" lon="1.16027">
        <ele>276</ele>
        <time>2020-01-28T16:15:32Z</time>
      </trkpt>
      <trkpt lat="43.57494" lon="1.16015">
        <ele>278</ele>
        <time>2020-01-28T16:15:39Z</time>
      </trkpt>
      <trkpt lat="43.57498" lon="1.16003">
        <ele>280</ele>
        <time>2020-01-28T16:15:47Z</time>
      </trkpt>
      <trkpt lat="43.57503" lon="1.15992">
        <ele>284</ele>
        <time>2020-01-28T16:15:55Z</time>
      </trkpt>
      <trkpt lat="43.57509" lon="1.15981">
        <ele>285</ele>
        <time>2020-01-28T16:16:03Z</time>
      </trkpt>
      <trkpt lat="43.57513" lon="1.15969">
        <ele>285</ele>
        <time>2020-01-28T16:16:11Z</time>
      </trkpt>
      <trkpt lat="43.57517" lon="1.15956">
        <ele>285</ele>
        <time>2020-01-28T16:16:19Z</time>
      </trkpt>
      <trkpt lat="43.57522" lon="1.15946">
        <ele>286</ele>
        <time>2020-01-28T16:16:27Z</time>
      </trkpt>
      <trkpt lat="43.57527" lon="1.15933">
        <ele>284</ele>
        <time>2020-01-28T16:16:35Z</time>
      </trkpt>
      <trkpt lat="43.5753" lon="1.15919">
        <ele>281</ele>
        <time>2020-01-28T16:16:44Z</time>
      </trkpt>
      <trkpt lat="43.57535" lon="1.15907">
        <ele>280</ele>
        <time>2020-01-28T16:16:52Z</time>
      </trkpt>
      <trkpt lat="43.57537" lon="1.15895">
        <ele>280</ele>
        <time>2020-01-28T16:16:59Z</time>
      </trkpt>
      <trkpt lat="43.57542" lon="1.15883">
        <ele>281</ele>
        <time>2020-01-28T16:17:07Z</time>
      </trkpt>
      <trkpt lat="43.57546" lon="1.15872">
        <ele>282</ele>
        <time>2020-01-28T16:17:14Z</time>
      </trkpt>
      <trkpt lat="43.57552" lon="1.15861">
        <ele>283</ele>
        <time>2020-01-28T16:17:22Z</time>
      </trkpt>
      <trkpt lat="43.57557" lon="1.1585">
        <ele>284</ele>
        <time>2020-01-28T16:17:30Z</time>
      </trkpt>
      <trkpt lat="43.57563" lon="1.15839">
        <ele>285</ele>
        <time>2020-01-28T16:17:38Z</time>
      </trkpt>
      <trkpt lat="43.57569" lon="1.1583">
        <ele>286</ele>
        <time>2020-01-28T16:17:45Z</time>
      </trkpt>
      <trkpt lat="43.57576" lon="1.15822">
        <ele>286</ele>
        <time>2020-01-28T16:17:52Z</time>
      </trkpt>
      <trkpt lat="43.57582" lon="1.15811">
        <ele>286</ele>
        <time>2020-01-28T16:18:00Z</time>
      </trkpt>
      <trkpt lat="43.57587" lon="1.158">
        <ele>284</ele>
        <time>2020-01-28T16:18:08Z</time>
      </trkpt>
      <trkpt lat="43.57594" lon="1.1579">
        <ele>283</ele>
        <time>2020-01-28T16:18:16Z</time>
      </trkpt>
      <trkpt lat="43.57602" lon="1.15784">
        <ele>284</ele>
        <time>2020-01-28T16:18:23Z</time>
      </trkpt>
      <trkpt lat="43.57608" lon="1.15774">
        <ele>285</ele>
        <time>2020-01-28T16:18:31Z</time>
      </trkpt>
      <trkpt lat="43.57615" lon="1.15764">
        <ele>286</ele>
        <time>2020-01-28T16:18:39Z</time>
      </trkpt>
      <trkpt lat="43.57622" lon="1.15755">
        <ele>288</ele>
        <time>2020-01-28T16:18:47Z</time>
      </trkpt>
      <trkpt lat="43.57628" lon="1.15745">
        <ele>288</ele>
        <time>2020-01-28T16:18:55Z</time>
      </trkpt>
      <trkpt lat="43.57635" lon="1.15736">
        <ele>289</ele>
        <time>2020-01-28T16:19:02Z</time>
      </trkpt>
      <trkpt lat="43.57642" lon="1.15726">
        <ele>289</ele>
        <time>2020-01-28T16:19:10Z</time>
      </trkpt>
      <trkpt lat="43.5765" lon="1.15717">
        <ele>288</ele>
        <time>2020-01-28T16:19:18Z</time>
      </trkpt>
      <trkpt lat="43.57658" lon="1.15711">
        <ele>286</ele>
        <time>2020-01-28T16:19:26Z</time>
      </trkpt>
      <trkpt lat="43.57663" lon="1.157">
        <ele>287</ele>
        <time>2020-01-28T16:19:34Z</time>
      </trkpt>
      <trkpt lat="43.57669" lon="1.1569">
        <ele>287</ele>
        <time>2020-01-28T16:19:41Z</time>
      </trkpt>
      <trkpt lat="43.57677" lon="1.1568">
        <ele>287</ele>
        <time>2020-01-28T16:19:49Z</time>
      </trkpt>
      <trkpt lat="43.57684" lon="1.15672">
        <ele>288</ele>
        <time>2020-01-28T16:19:57Z</time>
      </trkpt>
      <trkpt lat="43.57691" lon="1.15662">
        <ele>289</ele>
        <time>2020-01-28T16:20:05Z</time>
      </trkpt>
      <trkpt lat="43.57697" lon="1.15652">
        <ele>288</ele>
        <time>2020-01-28T16:20:13Z</time>
      </trkpt>
      <trkpt lat="43.57704" lon="1.15641">
        <ele>290</ele>
        <time>2020-01-28T16:20:21Z</time>
      </trkpt>
      <trkpt lat="43.5771" lon="1.15632">
        <ele>290</ele>
        <time>2020-01-28T16:20:28Z</time>
      </trkpt>
      <trkpt lat="43.57715" lon="1.15622">
        <ele>289</ele>
        <time>2020-01-28T16:20:36Z</time>
      </trkpt>
      <trkpt lat="43.57723" lon="1.15612">
        <ele>289</ele>
        <time>2020-01-28T16:20:44Z</time>
      </trkpt>
      <trkpt lat="43.5773" lon="1.15603">
        <ele>289</ele>
        <time>2020-01-28T16:20:52Z</time>
      </trkpt>
      <trkpt lat="43.57736" lon="1.15593">
        <ele>289</ele>
        <time>2020-01-28T16:20:59Z</time>
      </trkpt>
      <trkpt lat="43.57744" lon="1.15587">
        <ele>289</ele>
        <time>2020-01-28T16:21:07Z</time>
      </trkpt>
      <trkpt lat="43.57751" lon="1.15576">
        <ele>289</ele>
        <time>2020-01-28T16:21:15Z</time>
      </trkpt>
      <trkpt lat="43.57758" lon="1.15568">
        <ele>290</ele>
        <time>2020-01-28T16:21:23Z</time>
      </trkpt>
      <trkpt lat="43.57766" lon="1.1556">
        <ele>289</ele>
        <time>2020-01-28T16:21:30Z</time>
      </trkpt>
      <trkpt lat="43.57773" lon="1.15552">
        <ele>289</ele>
        <time>2020-01-28T16:21:38Z</time>
      </trkpt>
      <trkpt lat="43.57778" lon="1.15541">
        <ele>288</ele>
        <time>2020-01-28T16:21:46Z</time>
      </trkpt>
      <trkpt lat="43.57787" lon="1.15532">
        <ele>288</ele>
        <time>2020-01-28T16:21:54Z</time>
      </trkpt>
      <trkpt lat="43.57796" lon="1.15523">
        <ele>287</ele>
        <time>2020-01-28T16:22:03Z</time>
      </trkpt>
      <trkpt lat="43.57802" lon="1.15513">
        <ele>288</ele>
        <time>2020-01-28T16:22:11Z</time>
      </trkpt>
      <trkpt lat="43.57811" lon="1.15506">
        <ele>287</ele>
        <time>2020-01-28T16:22:19Z</time>
      </trkpt>
      <trkpt lat="43.57819" lon="1.15498">
        <ele>285</ele>
        <time>2020-01-28T16:22:27Z</time>
      </trkpt>
      <trkpt lat="43.57829" lon="1.15492">
        <ele>283</ele>
        <time>2020-01-28T16:22:36Z</time>
      </trkpt>
      <trkpt lat="43.57836" lon="1.15481">
        <ele>284</ele>
        <time>2020-01-28T16:22:44Z</time>
      </trkpt>
      <trkpt lat="43.57842" lon="1.15472">
        <ele>285</ele>
        <time>2020-01-28T16:22:51Z</time>
      </trkpt>
      <trkpt lat="43.57849" lon="1.15464">
        <ele>287</ele>
        <time>2020-01-28T16:22:59Z</time>
      </trkpt>
      <trkpt lat="43.57856" lon="1.15454">
        <ele>288</ele>
        <time>2020-01-28T16:23:07Z</time>
      </trkpt>
      <trkpt lat="43.57865" lon="1.15447">
        <ele>286</ele>
        <time>2020-01-28T16:23:15Z</time>
      </trkpt>
      <trkpt lat="43.57872" lon="1.15438">
        <ele>286</ele>
        <time>2020-01-28T16:23:23Z</time>
      </trkpt>
      <trkpt lat="43.57879" lon="1.15429">
        <ele>288</ele>
        <time>2020-01-28T16:23:31Z</time>
      </trkpt>
      <trkpt lat="43.57887" lon="1.15424">
        <ele>289</ele>
        <time>2020-01-28T16:23:38Z</time>
      </trkpt>
      <trkpt lat="43.57895" lon="1.15414">
        <ele>290</ele>
        <time>2020-01-28T16:23:46Z</time>
      </trkpt>
      <trkpt lat="43.57901" lon="1.15403">
        <ele>290</ele>
        <time>2020-01-28T16:23:54Z</time>
      </trkpt>
      <trkpt lat="43.57908" lon="1.15395">
        <ele>291</ele>
        <time>2020-01-28T16:24:02Z</time>
      </trkpt>
      <trkpt lat="43.57913" lon="1.15385">
        <ele>292</ele>
        <time>2020-01-28T16:24:09Z</time>
      </trkpt>
      <trkpt lat="43.57919" lon="1.15374">
        <ele>293</ele>
        <time>2020-01-28T16:24:17Z</time>
      </trkpt>
      <trkpt lat="43.57926" lon="1.15362">
        <ele>293</ele>
        <time>2020-01-28T16:24:26Z</time>
      </trkpt>
      <trkpt lat="43.57932" lon="1.15353">
        <ele>292</ele>
        <time>2020-01-28T16:24:33Z</time>
      </trkpt>
      <trkpt lat="43.57939" lon="1.15341">
        <ele>291</ele>
        <time>2020-01-28T16:24:42Z</time>
      </trkpt>
      <trkpt lat="43.57944" lon="1.1533">
        <ele>290</ele>
        <time>2020-01-28T16:24:50Z</time>
      </trkpt>
      <trkpt lat="43.5795" lon="1.15321">
        <ele>288</ele>
        <time>2020-01-28T16:24:57Z</time>
      </trkpt>
      <trkpt lat="43.57956" lon="1.1531">
        <ele>287</ele>
        <time>2020-01-28T16:25:05Z</time>
      </trkpt>
      <trkpt lat="43.57961" lon="1.15297">
        <ele>286</ele>
        <time>2020-01-28T16:25:14Z</time>
      </trkpt>
      <trkpt lat="43.57967" lon="1.15287">
        <ele>287</ele>
        <time>2020-01-28T16:25:21Z</time>
      </trkpt>
      <trkpt lat="43.5797" lon="1.15275">
        <ele>285</ele>
        <time>2020-01-28T16:25:29Z</time>
      </trkpt>
      <trkpt lat="43.5797" lon="1.15262">
        <ele>286</ele>
        <time>2020-01-28T16:25:36Z</time>
      </trkpt>
      <trkpt lat="43.57972" lon="1.15249">
        <ele>287</ele>
        <time>2020-01-28T16:25:44Z</time>
      </trkpt>
      <trkpt lat="43.57973" lon="1.15236">
        <ele>285</ele>
        <time>2020-01-28T16:25:52Z</time>
      </trkpt>
      <trkpt lat="43.57976" lon="1.15224">
        <ele>285</ele>
        <time>2020-01-28T16:25:59Z</time>
      </trkpt>
      <trkpt lat="43.57978" lon="1.15211">
        <ele>286</ele>
        <time>2020-01-28T16:26:07Z</time>
      </trkpt>
      <trkpt lat="43.5798" lon="1.15198">
        <ele>288</ele>
        <time>2020-01-28T16:26:15Z</time>
      </trkpt>
      <trkpt lat="43.57981" lon="1.15184">
        <ele>291</ele>
        <time>2020-01-28T16:26:23Z</time>
      </trkpt>
      <trkpt lat="43.57983" lon="1.15171">
        <ele>292</ele>
        <time>2020-01-28T16:26:31Z</time>
      </trkpt>
      <trkpt lat="43.57982" lon="1.15157">
        <ele>292</ele>
        <time>2020-01-28T16:26:39Z</time>
      </trkpt>
      <trkpt lat="43.57985" lon="1.15145">
        <ele>292</ele>
        <time>2020-01-28T16:26:47Z</time>
      </trkpt>
      <trkpt lat="43.57986" lon="1.15131">
        <ele>293</ele>
        <time>2020-01-28T16:26:55Z</time>
      </trkpt>
      <trkpt lat="43.57987" lon="1.15118">
        <ele>293</ele>
        <time>2020-01-28T16:27:02Z</time>
      </trkpt>
      <trkpt lat="43.57988" lon="1.15104">
        <ele>294</ele>
        <time>2020-01-28T16:27:11Z</time>
      </trkpt>
      <trkpt lat="43.5799" lon="1.15091">
        <ele>294</ele>
        <time>2020-01-28T16:27:19Z</time>
      </trkpt>
      <trkpt lat="43.5799" lon="1.15077">
        <ele>293</ele>
        <time>2020-01-28T16:27:26Z</time>
      </trkpt>
      <trkpt lat="43.5799" lon="1.15064">
        <ele>293</ele>
        <time>2020-01-28T16:27:34Z</time>
      </trkpt>
      <trkpt lat="43.57993" lon="1.15052">
        <ele>294</ele>
        <time>2020-01-28T16:27:41Z</time>
      </trkpt>
      <trkpt lat="43.57994" lon="1.15038">
        <ele>295</ele>
        <time>2020-01-28T16:27:49Z</time>
      </trkpt>
      <trkpt lat="43.57994" lon="1.15024">
        <ele>296</ele>
        <time>2020-01-28T16:27:58Z</time>
      </trkpt>
      <trkpt lat="43.57996" lon="1.15011">
        <ele>297</ele>
        <time>2020-01-28T16:28:06Z</time>
      </trkpt>
      <trkpt lat="43.57998" lon="1.14998">
        <ele>298</ele>
        <time>2020-01-28T16:28:13Z</time>
      </trkpt>
      <trkpt lat="43.57998" lon="1.14984">
        <ele>300</ele>
        <time>2020-01-28T16:28:21Z</time>
      </trkpt>
      <trkpt lat="43.57999" lon="1.14971">
        <ele>301</ele>
        <time>2020-01-28T16:28:29Z</time>
      </trkpt>
      <trkpt lat="43.57967" lon="1.14922">
        <ele>302.8</ele>
        <time>2020-01-28T16:29:08Z</time>
      </trkpt>
      <trkpt lat="43.57939" lon="1.14867">
        <ele>300</ele>
        <time>2020-01-28T16:29:47Z</time>
      </trkpt>
      <trkpt lat="43.57929" lon="1.14863">
        <ele>298</ele>
        <time>2020-01-28T16:29:55Z</time>
      </trkpt>
      <trkpt lat="43.5792" lon="1.14862">
        <ele>298</ele>
        <time>2020-01-28T16:30:02Z</time>
      </trkpt>
      <trkpt lat="43.5791" lon="1.14861">
        <ele>299</ele>
        <time>2020-01-28T16:30:10Z</time>
      </trkpt>
      <trkpt lat="43.579" lon="1.1486">
        <ele>300</ele>
        <time>2020-01-28T16:30:18Z</time>
      </trkpt>
      <trkpt lat="43.57891" lon="1.14861">
        <ele>299</ele>
        <time>2020-01-28T16:30:26Z</time>
      </trkpt>
      <trkpt lat="43.57881" lon="1.14861">
        <ele>298</ele>
        <time>2020-01-28T16:30:34Z</time>
      </trkpt>
      <trkpt lat="43.57872" lon="1.14864">
        <ele>297</ele>
        <time>2020-01-28T16:30:41Z</time>
      </trkpt>
      <trkpt lat="43.57862" lon="1.14868">
        <ele>295</ele>
        <time>2020-01-28T16:30:49Z</time>
      </trkpt>
      <trkpt lat="43.57852" lon="1.1487">
        <ele>295</ele>
        <time>2020-01-28T16:30:58Z</time>
      </trkpt>
      <trkpt lat="43.57842" lon="1.1487">
        <ele>295</ele>
        <time>2020-01-28T16:31:05Z</time>
      </trkpt>
      <trkpt lat="43.57832" lon="1.1487">
        <ele>293</ele>
        <time>2020-01-28T16:31:13Z</time>
      </trkpt>
      <trkpt lat="43.57822" lon="1.14871">
        <ele>293</ele>
        <time>2020-01-28T16:31:22Z</time>
      </trkpt>
      <trkpt lat="43.57812" lon="1.14873">
        <ele>293</ele>
        <time>2020-01-28T16:31:30Z</time>
      </trkpt>
      <trkpt lat="43.57803" lon="1.14874">
        <ele>294</ele>
        <time>2020-01-28T16:31:37Z</time>
      </trkpt>
      <trkpt lat="43.57793" lon="1.14876">
        <ele>293</ele>
        <time>2020-01-28T16:31:45Z</time>
      </trkpt>
      <trkpt lat="43.57783" lon="1.1488">
        <ele>294</ele>
        <time>2020-01-28T16:31:53Z</time>
      </trkpt>
      <trkpt lat="43.57775" lon="1.14886">
        <ele>294</ele>
        <time>2020-01-28T16:32:01Z</time>
      </trkpt>
      <trkpt lat="43.57766" lon="1.14893">
        <ele>293</ele>
        <time>2020-01-28T16:32:09Z</time>
      </trkpt>
      <trkpt lat="43.57758" lon="1.149">
        <ele>293</ele>
        <time>2020-01-28T16:32:17Z</time>
      </trkpt>
      <trkpt lat="43.57751" lon="1.14909">
        <ele>294</ele>
        <time>2020-01-28T16:32:25Z</time>
      </trkpt>
      <trkpt lat="43.57742" lon="1.14917">
        <ele>294</ele>
        <time>2020-01-28T16:32:33Z</time>
      </trkpt>
      <trkpt lat="43.57734" lon="1.14926">
        <ele>293</ele>
        <time>2020-01-28T16:32:41Z</time>
      </trkpt>
      <trkpt lat="43.57727" lon="1.14933">
        <ele>292</ele>
        <time>2020-01-28T16:32:48Z</time>
      </trkpt>
      <trkpt lat="43.57721" lon="1.14943">
        <ele>289</ele>
        <time>2020-01-28T16:32:56Z</time>
      </trkpt>
      <trkpt lat="43.57713" lon="1.14952">
        <ele>288</ele>
        <time>2020-01-28T16:33:04Z</time>
      </trkpt>
      <trkpt lat="43.57706" lon="1.14962">
        <ele>286</ele>
        <time>2020-01-28T16:33:13Z</time>
      </trkpt>
      <trkpt lat="43.57698" lon="1.14971">
        <ele>286</ele>
        <time>2020-01-28T16:33:20Z</time>
      </trkpt>
      <trkpt lat="43.57691" lon="1.1498">
        <ele>285</ele>
        <time>2020-01-28T16:33:29Z</time>
      </trkpt>
      <trkpt lat="43.57683" lon="1.14987">
        <ele>287</ele>
        <time>2020-01-28T16:33:36Z</time>
      </trkpt>
      <trkpt lat="43.57676" lon="1.14997">
        <ele>290</ele>
        <time>2020-01-28T16:33:45Z</time>
      </trkpt>
      <trkpt lat="43.57668" lon="1.15005">
        <ele>291</ele>
        <time>2020-01-28T16:33:52Z</time>
      </trkpt>
      <trkpt lat="43.57662" lon="1.15015">
        <ele>289</ele>
        <time>2020-01-28T16:34:00Z</time>
      </trkpt>
      <trkpt lat="43.57653" lon="1.15022">
        <ele>289</ele>
        <time>2020-01-28T16:34:08Z</time>
      </trkpt>
      <trkpt lat="43.57645" lon="1.15028">
        <ele>288</ele>
        <time>2020-01-28T16:34:15Z</time>
      </trkpt>
      <trkpt lat="43.57624" lon="1.15037">
        <ele>285.1</ele>
        <time>2020-01-28T16:34:33Z</time>
      </trkpt>
      <trkpt lat="43.57614" lon="1.15013">
        <ele>285.2</ele>
        <time>2020-01-28T16:34:49Z</time>
      </trkpt>
      <trkpt lat="43.57607" lon="1.14968">
        <ele>283.3</ele>
        <time>2020-01-28T16:35:16Z</time>
      </trkpt>
      <trkpt lat="43.57607" lon="1.14941">
        <ele>282.2</ele>
        <time>2020-01-28T16:35:32Z</time>
      </trkpt>
      <trkpt lat="43.5761" lon="1.14917">
        <ele>280.9</ele>
        <time>2020-01-28T16:35:46Z</time>
      </trkpt>
      <trkpt lat="43.57616" lon="1.14882">
        <ele>280.2</ele>
        <time>2020-01-28T16:36:07Z</time>
      </trkpt>
      <trkpt lat="43.57621" lon="1.14854">
        <ele>279.5</ele>
        <time>2020-01-28T16:36:24Z</time>
      </trkpt>
      <trkpt lat="43.57616" lon="1.1483">
        <ele>272</ele>
        <time>2020-01-28T16:36:38Z</time>
      </trkpt>
      <trkpt lat="43.57609" lon="1.14815">
        <ele>276.1</ele>
        <time>2020-01-28T16:36:48Z</time>
      </trkpt>
      <trkpt lat="43.57578" lon="1.14789">
        <ele>271</ele>
        <time>2020-01-28T16:37:17Z</time>
      </trkpt>
      <trkpt lat="43.57569" lon="1.14783">
        <ele>269</ele>
        <time>2020-01-28T16:37:25Z</time>
      </trkpt>
      <trkpt lat="43.5756" lon="1.14775">
        <ele>268</ele>
        <time>2020-01-28T16:37:34Z</time>
      </trkpt>
      <trkpt lat="43.57553" lon="1.14767">
        <ele>267</ele>
        <time>2020-01-28T16:37:41Z</time>
      </trkpt>
      <trkpt lat="43.57545" lon="1.14758">
        <ele>266</ele>
        <time>2020-01-28T16:37:50Z</time>
      </trkpt>
      <trkpt lat="43.5754" lon="1.14747">
        <ele>266</ele>
        <time>2020-01-28T16:37:57Z</time>
      </trkpt>
      <trkpt lat="43.57531" lon="1.14739">
        <ele>266</ele>
        <time>2020-01-28T16:38:06Z</time>
      </trkpt>
      <trkpt lat="43.57525" lon="1.14728">
        <ele>267</ele>
        <time>2020-01-28T16:38:14Z</time>
      </trkpt>
      <trkpt lat="43.57519" lon="1.14719">
        <ele>267</ele>
        <time>2020-01-28T16:38:21Z</time>
      </trkpt>
      <trkpt lat="43.57503" lon="1.14696">
        <ele>258.4</ele>
        <time>2020-01-28T16:38:39Z</time>
      </trkpt>
      <trkpt lat="43.57493" lon="1.14679">
        <ele>265</ele>
        <time>2020-01-28T16:38:52Z</time>
      </trkpt>
      <trkpt lat="43.57485" lon="1.14669">
        <ele>264</ele>
        <time>2020-01-28T16:39:01Z</time>
      </trkpt>
      <trkpt lat="43.57479" lon="1.14659">
        <ele>264</ele>
        <time>2020-01-28T16:39:09Z</time>
      </trkpt>
      <trkpt lat="43.57471" lon="1.14649">
        <ele>263</ele>
        <time>2020-01-28T16:39:17Z</time>
      </trkpt>
      <trkpt lat="43.57465" lon="1.14639">
        <ele>262</ele>
        <time>2020-01-28T16:39:25Z</time>
      </trkpt>
      <trkpt lat="43.57453" lon="1.14621">
        <ele>251.2</ele>
        <time>2020-01-28T16:39:39Z</time>
      </trkpt>
      <trkpt lat="43.57462" lon="1.14595">
        <ele>250.6</ele>
        <time>2020-01-28T16:39:55Z</time>
      </trkpt>
      <trkpt lat="43.57475" lon="1.1457">
        <ele>247</ele>
        <time>2020-01-28T16:40:13Z</time>
      </trkpt>
      <trkpt lat="43.57485" lon="1.14544">
        <ele>249.9</ele>
        <time>2020-01-28T16:40:30Z</time>
      </trkpt>
      <trkpt lat="43.57493" lon="1.14527">
        <ele>249.5</ele>
        <time>2020-01-28T16:40:42Z</time>
      </trkpt>
      <trkpt lat="43.57503" lon="1.14498">
        <ele>250.3</ele>
        <time>2020-01-28T16:41:01Z</time>
      </trkpt>
      <trkpt lat="43.57534" lon="1.14428">
        <ele>257</ele>
        <time>2020-01-28T16:41:49Z</time>
      </trkpt>
      <trkpt lat="43.57547" lon="1.14397">
        <ele>259.1</ele>
        <time>2020-01-28T16:42:09Z</time>
      </trkpt>
      <trkpt lat="43.57572" lon="1.14338">
        <ele>264</ele>
        <time>2020-01-28T16:42:49Z</time>
      </trkpt>
      <trkpt lat="43.57592" lon="1.14279">
        <ele>270.9</ele>
        <time>2020-01-28T16:43:27Z</time>
      </trkpt>
      <trkpt lat="43.57605" lon="1.1425">
        <ele>274.4</ele>
        <time>2020-01-28T16:43:47Z</time>
      </trkpt>
      <trkpt lat="43.57617" lon="1.14222">
        <ele>277.7</ele>
        <time>2020-01-28T16:44:06Z</time>
      </trkpt>
      <trkpt lat="43.57636" lon="1.14182">
        <ele>282</ele>
        <time>2020-01-28T16:44:33Z</time>
      </trkpt>
      <trkpt lat="43.57649" lon="1.14155">
        <ele>290</ele>
        <time>2020-01-28T16:44:52Z</time>
      </trkpt>
      <trkpt lat="43.57658" lon="1.1413">
        <ele>287</ele>
        <time>2020-01-28T16:45:08Z</time>
      </trkpt>
      <trkpt lat="43.57668" lon="1.14109">
        <ele>289.1</ele>
        <time>2020-01-28T16:45:23Z</time>
      </trkpt>
      <trkpt lat="43.57673" lon="1.14098">
        <ele>301</ele>
        <time>2020-01-28T16:45:31Z</time>
      </trkpt>
      <trkpt lat="43.57684" lon="1.14083">
        <ele>290.9</ele>
        <time>2020-01-28T16:45:43Z</time>
      </trkpt>
      <trkpt lat="43.57685" lon="1.14079">
        <ele>290.9</ele>
        <time>2020-01-28T16:45:46Z</time>
      </trkpt>
      <trkpt lat="43.57597" lon="1.14016">
        <ele>274</ele>
        <time>2020-01-28T16:47:05Z</time>
      </trkpt>
      <trkpt lat="43.57553" lon="1.14">
        <ele>266.6</ele>
        <time>2020-01-28T16:47:41Z</time>
      </trkpt>
      <trkpt lat="43.5747" lon="1.13911">
        <ele>264</ele>
        <time>2020-01-28T16:49:05Z</time>
      </trkpt>
      <trkpt lat="43.57461" lon="1.13908">
        <ele>263</ele>
        <time>2020-01-28T16:49:13Z</time>
      </trkpt>
      <trkpt lat="43.57453" lon="1.13903">
        <ele>263</ele>
        <time>2020-01-28T16:49:20Z</time>
      </trkpt>
      <trkpt lat="43.57444" lon="1.13899">
        <ele>263</ele>
        <time>2020-01-28T16:49:27Z</time>
      </trkpt>
      <trkpt lat="43.57436" lon="1.13891">
        <ele>263</ele>
        <time>2020-01-28T16:49:35Z</time>
      </trkpt>
      <trkpt lat="43.57429" lon="1.13883">
        <ele>263</ele>
        <time>2020-01-28T16:49:43Z</time>
      </trkpt>
      <trkpt lat="43.57422" lon="1.13875">
        <ele>263</ele>
        <time>2020-01-28T16:49:50Z</time>
      </trkpt>
      <trkpt lat="43.57413" lon="1.13868">
        <ele>263</ele>
        <time>2020-01-28T16:49:58Z</time>
      </trkpt>
      <trkpt lat="43.57404" lon="1.13866">
        <ele>262</ele>
        <time>2020-01-28T16:50:05Z</time>
      </trkpt>
      <trkpt lat="43.57399" lon="1.13877">
        <ele>262</ele>
        <time>2020-01-28T16:50:13Z</time>
      </trkpt>
      <trkpt lat="43.57393" lon="1.13889">
        <ele>263</ele>
        <time>2020-01-28T16:50:21Z</time>
      </trkpt>
      <trkpt lat="43.57385" lon="1.13898">
        <ele>263</ele>
        <time>2020-01-28T16:50:30Z</time>
      </trkpt>
      <trkpt lat="43.57382" lon="1.13911">
        <ele>266</ele>
        <time>2020-01-28T16:50:38Z</time>
      </trkpt>
      <trkpt lat="43.57373" lon="1.13911">
        <ele>267</ele>
        <time>2020-01-28T16:50:45Z</time>
      </trkpt>
      <trkpt lat="43.57364" lon="1.13905">
        <ele>268</ele>
        <time>2020-01-28T16:50:53Z</time>
      </trkpt>
      <trkpt lat="43.57357" lon="1.13897">
        <ele>268</ele>
        <time>2020-01-28T16:51:01Z</time>
      </trkpt>
      <trkpt lat="43.57349" lon="1.13889">
        <ele>267</ele>
        <time>2020-01-28T16:51:09Z</time>
      </trkpt>
      <trkpt lat="43.57339" lon="1.13884">
        <ele>267</ele>
        <time>2020-01-28T16:51:17Z</time>
      </trkpt>
      <trkpt lat="43.57332" lon="1.13876">
        <ele>267</ele>
        <time>2020-01-28T16:51:25Z</time>
      </trkpt>
      <trkpt lat="43.57313" lon="1.13848">
        <ele>269.2</ele>
        <time>2020-01-28T16:51:47Z</time>
      </trkpt>
      <trkpt lat="43.57299" lon="1.13831">
        <ele>263</ele>
        <time>2020-01-28T16:52:01Z</time>
      </trkpt>
      <trkpt lat="43.57293" lon="1.13821">
        <ele>262</ele>
        <time>2020-01-28T16:52:09Z</time>
      </trkpt>
      <trkpt lat="43.57285" lon="1.13811">
        <ele>261</ele>
        <time>2020-01-28T16:52:18Z</time>
      </trkpt>
      <trkpt lat="43.57276" lon="1.13806">
        <ele>259</ele>
        <time>2020-01-28T16:52:26Z</time>
      </trkpt>
      <trkpt lat="43.57268" lon="1.13797">
        <ele>258</ele>
        <time>2020-01-28T16:52:34Z</time>
      </trkpt>
      <trkpt lat="43.57257" lon="1.13776">
        <ele>259.9</ele>
        <time>2020-01-28T16:52:49Z</time>
      </trkpt>
      <trkpt lat="43.57236" lon="1.13751">
        <ele>249</ele>
        <time>2020-01-28T16:53:11Z</time>
      </trkpt>
      <trkpt lat="43.57231" lon="1.13739">
        <ele>250</ele>
        <time>2020-01-28T16:53:20Z</time>
      </trkpt>
      <trkpt lat="43.57224" lon="1.1373">
        <ele>251</ele>
        <time>2020-01-28T16:53:27Z</time>
      </trkpt>
      <trkpt lat="43.57215" lon="1.13723">
        <ele>251</ele>
        <time>2020-01-28T16:53:36Z</time>
      </trkpt>
      <trkpt lat="43.5721" lon="1.13711">
        <ele>252</ele>
        <time>2020-01-28T16:53:43Z</time>
      </trkpt>
      <trkpt lat="43.572" lon="1.13705">
        <ele>250</ele>
        <time>2020-01-28T16:53:52Z</time>
      </trkpt>
      <trkpt lat="43.57193" lon="1.13697">
        <ele>246</ele>
        <time>2020-01-28T16:54:00Z</time>
      </trkpt>
      <trkpt lat="43.57187" lon="1.13686">
        <ele>243</ele>
        <time>2020-01-28T16:54:08Z</time>
      </trkpt>
      <trkpt lat="43.57181" lon="1.13674">
        <ele>243</ele>
        <time>2020-01-28T16:54:17Z</time>
      </trkpt>
      <trkpt lat="43.57174" lon="1.13665">
        <ele>242</ele>
        <time>2020-01-28T16:54:24Z</time>
      </trkpt>
      <trkpt lat="43.57167" lon="1.13657">
        <ele>242</ele>
        <time>2020-01-28T16:54:32Z</time>
      </trkpt>
      <trkpt lat="43.57158" lon="1.1365">
        <ele>242</ele>
        <time>2020-01-28T16:54:40Z</time>
      </trkpt>
      <trkpt lat="43.57151" lon="1.13642">
        <ele>240</ele>
        <time>2020-01-28T16:54:48Z</time>
      </trkpt>
      <trkpt lat="43.57141" lon="1.13636">
        <ele>241</ele>
        <time>2020-01-28T16:54:56Z</time>
      </trkpt>
      <trkpt lat="43.57132" lon="1.13632">
        <ele>240</ele>
        <time>2020-01-28T16:55:04Z</time>
      </trkpt>
      <trkpt lat="43.57122" lon="1.13628">
        <ele>240</ele>
        <time>2020-01-28T16:55:13Z</time>
      </trkpt>
      <trkpt lat="43.57112" lon="1.13625">
        <ele>241</ele>
        <time>2020-01-28T16:55:21Z</time>
      </trkpt>
      <trkpt lat="43.57102" lon="1.13624">
        <ele>239</ele>
        <time>2020-01-28T16:55:29Z</time>
      </trkpt>
      <trkpt lat="43.57093" lon="1.13619">
        <ele>238</ele>
        <time>2020-01-28T16:55:36Z</time>
      </trkpt>
      <trkpt lat="43.57085" lon="1.13612">
        <ele>239</ele>
        <time>2020-01-28T16:55:44Z</time>
      </trkpt>
      <trkpt lat="43.57078" lon="1.13604">
        <ele>241</ele>
        <time>2020-01-28T16:55:52Z</time>
      </trkpt>
      <trkpt lat="43.57069" lon="1.13604">
        <ele>245</ele>
        <time>2020-01-28T16:55:59Z</time>
      </trkpt>
      <trkpt lat="43.57059" lon="1.13602">
        <ele>247</ele>
        <time>2020-01-28T16:56:07Z</time>
      </trkpt>
      <trkpt lat="43.57049" lon="1.13602">
        <ele>248</ele>
        <time>2020-01-28T16:56:15Z</time>
      </trkpt>
      <trkpt lat="43.57039" lon="1.13601">
        <ele>246</ele>
        <time>2020-01-28T16:56:24Z</time>
      </trkpt>
      <trkpt lat="43.57031" lon="1.13594">
        <ele>243</ele>
        <time>2020-01-28T16:56:31Z</time>
      </trkpt>
      <trkpt lat="43.57023" lon="1.13588">
        <ele>240</ele>
        <time>2020-01-28T16:56:39Z</time>
      </trkpt>
      <trkpt lat="43.57014" lon="1.13583">
        <ele>237</ele>
        <time>2020-01-28T16:56:47Z</time>
      </trkpt>
      <trkpt lat="43.57004" lon="1.13579">
        <ele>236</ele>
        <time>2020-01-28T16:56:55Z</time>
      </trkpt>
      <trkpt lat="43.56995" lon="1.13572">
        <ele>234</ele>
        <time>2020-01-28T16:57:04Z</time>
      </trkpt>
      <trkpt lat="43.56985" lon="1.13565">
        <ele>235</ele>
        <time>2020-01-28T16:57:13Z</time>
      </trkpt>
      <trkpt lat="43.56977" lon="1.1356">
        <ele>237</ele>
        <time>2020-01-28T16:57:20Z</time>
      </trkpt>
      <trkpt lat="43.56968" lon="1.13554">
        <ele>239</ele>
        <time>2020-01-28T16:57:28Z</time>
      </trkpt>
      <trkpt lat="43.56959" lon="1.13552">
        <ele>243</ele>
        <time>2020-01-28T16:57:36Z</time>
      </trkpt>
      <trkpt lat="43.5695" lon="1.13551">
        <ele>246</ele>
        <time>2020-01-28T16:57:44Z</time>
      </trkpt>
      <trkpt lat="43.56939" lon="1.13551">
        <ele>249</ele>
        <time>2020-01-28T16:57:52Z</time>
      </trkpt>
      <trkpt lat="43.5693" lon="1.13549">
        <ele>251</ele>
        <time>2020-01-28T16:58:00Z</time>
      </trkpt>
      <trkpt lat="43.5692" lon="1.13544">
        <ele>250</ele>
        <time>2020-01-28T16:58:09Z</time>
      </trkpt>
      <trkpt lat="43.5691" lon="1.13538">
        <ele>249</ele>
        <time>2020-01-28T16:58:17Z</time>
      </trkpt>
      <trkpt lat="43.569" lon="1.13535">
        <ele>247</ele>
        <time>2020-01-28T16:58:25Z</time>
      </trkpt>
      <trkpt lat="43.56891" lon="1.13534">
        <ele>246</ele>
        <time>2020-01-28T16:58:33Z</time>
      </trkpt>
      <trkpt lat="43.56882" lon="1.13529">
        <ele>244</ele>
        <time>2020-01-28T16:58:41Z</time>
      </trkpt>
      <trkpt lat="43.56872" lon="1.13523">
        <ele>244</ele>
        <time>2020-01-28T16:58:49Z</time>
      </trkpt>
      <trkpt lat="43.56863" lon="1.13519">
        <ele>244</ele>
        <time>2020-01-28T16:58:57Z</time>
      </trkpt>
      <trkpt lat="43.56854" lon="1.13515">
        <ele>242</ele>
        <time>2020-01-28T16:59:05Z</time>
      </trkpt>
      <trkpt lat="43.56845" lon="1.13513">
        <ele>242</ele>
        <time>2020-01-28T16:59:12Z</time>
      </trkpt>
      <trkpt lat="43.56836" lon="1.13515">
        <ele>240</ele>
        <time>2020-01-28T16:59:20Z</time>
      </trkpt>
      <trkpt lat="43.5683" lon="1.13504">
        <ele>234</ele>
        <time>2020-01-28T16:59:29Z</time>
      </trkpt>
      <trkpt lat="43.56808" lon="1.13507">
        <ele>233.1</ele>
        <time>2020-01-28T16:59:46Z</time>
      </trkpt>
      <trkpt lat="43.56779" lon="1.13492">
        <ele>233.3</ele>
        <time>2020-01-28T17:00:11Z</time>
      </trkpt>
      <trkpt lat="43.56762" lon="1.13483">
        <ele>223</ele>
        <time>2020-01-28T17:00:25Z</time>
      </trkpt>
      <trkpt lat="43.56754" lon="1.13476">
        <ele>223</ele>
        <time>2020-01-28T17:00:33Z</time>
      </trkpt>
      <trkpt lat="43.56745" lon="1.13474">
        <ele>224</ele>
        <time>2020-01-28T17:00:41Z</time>
      </trkpt>
      <trkpt lat="43.56735" lon="1.1347">
        <ele>224</ele>
        <time>2020-01-28T17:00:49Z</time>
      </trkpt>
      <trkpt lat="43.56727" lon="1.13464">
        <ele>227</ele>
        <time>2020-01-28T17:00:57Z</time>
      </trkpt>
      <trkpt lat="43.56717" lon="1.13461">
        <ele>229</ele>
        <time>2020-01-28T17:01:04Z</time>
      </trkpt>
      <trkpt lat="43.56708" lon="1.13462">
        <ele>230</ele>
        <time>2020-01-28T17:01:12Z</time>
      </trkpt>
      <trkpt lat="43.56699" lon="1.13456">
        <ele>231</ele>
        <time>2020-01-28T17:01:20Z</time>
      </trkpt>
      <trkpt lat="43.5669" lon="1.13451">
        <ele>232</ele>
        <time>2020-01-28T17:01:28Z</time>
      </trkpt>
      <trkpt lat="43.5668" lon="1.13446">
        <ele>233</ele>
        <time>2020-01-28T17:01:36Z</time>
      </trkpt>
      <trkpt lat="43.5667" lon="1.13443">
        <ele>233</ele>
        <time>2020-01-28T17:01:44Z</time>
      </trkpt>
      <trkpt lat="43.5666" lon="1.13441">
        <ele>233</ele>
        <time>2020-01-28T17:01:52Z</time>
      </trkpt>
      <trkpt lat="43.56651" lon="1.13438">
        <ele>234</ele>
        <time>2020-01-28T17:02:00Z</time>
      </trkpt>
      <trkpt lat="43.56642" lon="1.13435">
        <ele>234</ele>
        <time>2020-01-28T17:02:07Z</time>
      </trkpt>
      <trkpt lat="43.56632" lon="1.13431">
        <ele>235</ele>
        <time>2020-01-28T17:02:16Z</time>
      </trkpt>
      <trkpt lat="43.56624" lon="1.13427">
        <ele>237</ele>
        <time>2020-01-28T17:02:23Z</time>
      </trkpt>
      <trkpt lat="43.56614" lon="1.13423">
        <ele>238</ele>
        <time>2020-01-28T17:02:31Z</time>
      </trkpt>
      <trkpt lat="43.56605" lon="1.13417">
        <ele>240</ele>
        <time>2020-01-28T17:02:39Z</time>
      </trkpt>
      <trkpt lat="43.56595" lon="1.13412">
        <ele>240</ele>
        <time>2020-01-28T17:02:47Z</time>
      </trkpt>
      <trkpt lat="43.56586" lon="1.13411">
        <ele>240</ele>
        <time>2020-01-28T17:02:55Z</time>
      </trkpt>
      <trkpt lat="43.56577" lon="1.13407">
        <ele>240</ele>
        <time>2020-01-28T17:03:02Z</time>
      </trkpt>
      <trkpt lat="43.56569" lon="1.13401">
        <ele>240</ele>
        <time>2020-01-28T17:03:10Z</time>
      </trkpt>
      <trkpt lat="43.56559" lon="1.13398">
        <ele>240</ele>
        <time>2020-01-28T17:03:18Z</time>
      </trkpt>
      <trkpt lat="43.5655" lon="1.13395">
        <ele>241</ele>
        <time>2020-01-28T17:03:25Z</time>
      </trkpt>
      <trkpt lat="43.56542" lon="1.13392">
        <ele>241</ele>
        <time>2020-01-28T17:03:32Z</time>
      </trkpt>
      <trkpt lat="43.56532" lon="1.1339">
        <ele>241</ele>
        <time>2020-01-28T17:03:40Z</time>
      </trkpt>
      <trkpt lat="43.56524" lon="1.13386">
        <ele>241</ele>
        <time>2020-01-28T17:03:47Z</time>
      </trkpt>
      <trkpt lat="43.56514" lon="1.13384">
        <ele>242</ele>
        <time>2020-01-28T17:03:55Z</time>
      </trkpt>
      <trkpt lat="43.56505" lon="1.1338">
        <ele>241</ele>
        <time>2020-01-28T17:04:02Z</time>
      </trkpt>
      <trkpt lat="43.56475" lon="1.13373">
        <ele>252.8</ele>
        <time>2020-01-28T17:04:27Z</time>
      </trkpt>
      <trkpt lat="43.56459" lon="1.13363">
        <ele>244</ele>
        <time>2020-01-28T17:04:41Z</time>
      </trkpt>
      <trkpt lat="43.5645" lon="1.13359">
        <ele>249</ele>
        <time>2020-01-28T17:04:49Z</time>
      </trkpt>
      <trkpt lat="43.56441" lon="1.13355">
        <ele>251</ele>
        <time>2020-01-28T17:04:57Z</time>
      </trkpt>
      <trkpt lat="43.56431" lon="1.1335">
        <ele>254</ele>
        <time>2020-01-28T17:05:05Z</time>
      </trkpt>
      <trkpt lat="43.56422" lon="1.13349">
        <ele>255</ele>
        <time>2020-01-28T17:05:13Z</time>
      </trkpt>
      <trkpt lat="43.56412" lon="1.13347">
        <ele>257</ele>
        <time>2020-01-28T17:05:21Z</time>
      </trkpt>
      <trkpt lat="43.56403" lon="1.13345">
        <ele>259</ele>
        <time>2020-01-28T17:05:29Z</time>
      </trkpt>
      <trkpt lat="43.56372" lon="1.13333">
        <ele>266.4</ele>
        <time>2020-01-28T17:05:54Z</time>
      </trkpt>
      <trkpt lat="43.56348" lon="1.13326">
        <ele>267</ele>
        <time>2020-01-28T17:06:14Z</time>
      </trkpt>
      <trkpt lat="43.56339" lon="1.13321">
        <ele>267</ele>
        <time>2020-01-28T17:06:22Z</time>
      </trkpt>
      <trkpt lat="43.56328" lon="1.13319">
        <ele>268</ele>
        <time>2020-01-28T17:06:30Z</time>
      </trkpt>
      <trkpt lat="43.5632" lon="1.13313">
        <ele>271</ele>
        <time>2020-01-28T17:06:38Z</time>
      </trkpt>
      <trkpt lat="43.56311" lon="1.13309">
        <ele>273</ele>
        <time>2020-01-28T17:06:46Z</time>
      </trkpt>
      <trkpt lat="43.56302" lon="1.13307">
        <ele>275</ele>
        <time>2020-01-28T17:06:53Z</time>
      </trkpt>
      <trkpt lat="43.56292" lon="1.13306">
        <ele>277</ele>
        <time>2020-01-28T17:07:01Z</time>
      </trkpt>
      <trkpt lat="43.56284" lon="1.13303">
        <ele>280</ele>
        <time>2020-01-28T17:07:09Z</time>
      </trkpt>
      <trkpt lat="43.56274" lon="1.13299">
        <ele>281</ele>
        <time>2020-01-28T17:07:17Z</time>
      </trkpt>
      <trkpt lat="43.56265" lon="1.13296">
        <ele>283</ele>
        <time>2020-01-28T17:07:24Z</time>
      </trkpt>
      <trkpt lat="43.56257" lon="1.13288">
        <ele>282</ele>
        <time>2020-01-28T17:07:32Z</time>
      </trkpt>
      <trkpt lat="43.56248" lon="1.13285">
        <ele>279</ele>
        <time>2020-01-28T17:07:40Z</time>
      </trkpt>
      <trkpt lat="43.56239" lon="1.1329">
        <ele>279</ele>
        <time>2020-01-28T17:07:47Z</time>
      </trkpt>
      <trkpt lat="43.56233" lon="1.13302">
        <ele>278</ele>
        <time>2020-01-28T17:07:56Z</time>
      </trkpt>
      <trkpt lat="43.56224" lon="1.13306">
        <ele>279</ele>
        <time>2020-01-28T17:08:04Z</time>
      </trkpt>
      <trkpt lat="43.5622" lon="1.13295">
        <ele>280</ele>
        <time>2020-01-28T17:08:11Z</time>
      </trkpt>
      <trkpt lat="43.56212" lon="1.13288">
        <ele>278</ele>
        <time>2020-01-28T17:08:19Z</time>
      </trkpt>
      <trkpt lat="43.56202" lon="1.13288">
        <ele>279</ele>
        <time>2020-01-28T17:08:27Z</time>
      </trkpt>
      <trkpt lat="43.56193" lon="1.1329">
        <ele>279</ele>
        <time>2020-01-28T17:08:34Z</time>
      </trkpt>
      <trkpt lat="43.56184" lon="1.13292">
        <ele>278</ele>
        <time>2020-01-28T17:08:42Z</time>
      </trkpt>
      <trkpt lat="43.56174" lon="1.13293">
        <ele>276</ele>
        <time>2020-01-28T17:08:50Z</time>
      </trkpt>
      <trkpt lat="43.56164" lon="1.13292">
        <ele>276</ele>
        <time>2020-01-28T17:08:58Z</time>
      </trkpt>
      <trkpt lat="43.56155" lon="1.13293">
        <ele>276</ele>
        <time>2020-01-28T17:09:05Z</time>
      </trkpt>
      <trkpt lat="43.56145" lon="1.13295">
        <ele>276</ele>
        <time>2020-01-28T17:09:13Z</time>
      </trkpt>
      <trkpt lat="43.56135" lon="1.13298">
        <ele>276</ele>
        <time>2020-01-28T17:09:21Z</time>
      </trkpt>
      <trkpt lat="43.56126" lon="1.13298">
        <ele>274</ele>
        <time>2020-01-28T17:09:29Z</time>
      </trkpt>
      <trkpt lat="43.56116" lon="1.13301">
        <ele>272</ele>
        <time>2020-01-28T17:09:37Z</time>
      </trkpt>
      <trkpt lat="43.56106" lon="1.13301">
        <ele>269</ele>
        <time>2020-01-28T17:09:45Z</time>
      </trkpt>
      <trkpt lat="43.56096" lon="1.13302">
        <ele>266</ele>
        <time>2020-01-28T17:09:54Z</time>
      </trkpt>
      <trkpt lat="43.56086" lon="1.13301">
        <ele>264</ele>
        <time>2020-01-28T17:10:02Z</time>
      </trkpt>
      <trkpt lat="43.56077" lon="1.13303">
        <ele>262</ele>
        <time>2020-01-28T17:10:10Z</time>
      </trkpt>
      <trkpt lat="43.56067" lon="1.13302">
        <ele>260</ele>
        <time>2020-01-28T17:10:18Z</time>
      </trkpt>
      <trkpt lat="43.56058" lon="1.133">
        <ele>257</ele>
        <time>2020-01-28T17:10:25Z</time>
      </trkpt>
      <trkpt lat="43.56048" lon="1.13302">
        <ele>255</ele>
        <time>2020-01-28T17:10:33Z</time>
      </trkpt>
      <trkpt lat="43.56037" lon="1.13302">
        <ele>253</ele>
        <time>2020-01-28T17:10:42Z</time>
      </trkpt>
      <trkpt lat="43.56027" lon="1.13304">
        <ele>251</ele>
        <time>2020-01-28T17:10:50Z</time>
      </trkpt>
      <trkpt lat="43.56017" lon="1.13305">
        <ele>250</ele>
        <time>2020-01-28T17:10:58Z</time>
      </trkpt>
      <trkpt lat="43.56007" lon="1.13304">
        <ele>249</ele>
        <time>2020-01-28T17:11:06Z</time>
      </trkpt>
      <trkpt lat="43.55997" lon="1.13303">
        <ele>248</ele>
        <time>2020-01-28T17:11:14Z</time>
      </trkpt>
      <trkpt lat="43.55988" lon="1.13304">
        <ele>246</ele>
        <time>2020-01-28T17:11:22Z</time>
      </trkpt>
      <trkpt lat="43.55961" lon="1.13299">
        <ele>251.3</ele>
        <time>2020-01-28T17:11:44Z</time>
      </trkpt>
      <trkpt lat="43.55952" lon="1.13301">
        <ele>237</ele>
        <time>2020-01-28T17:11:51Z</time>
      </trkpt>
      <trkpt lat="43.55942" lon="1.133">
        <ele>235</ele>
        <time>2020-01-28T17:11:59Z</time>
      </trkpt>
      <trkpt lat="43.55933" lon="1.13305">
        <ele>233</ele>
        <time>2020-01-28T17:12:07Z</time>
      </trkpt>
      <trkpt lat="43.55923" lon="1.13305">
        <ele>232</ele>
        <time>2020-01-28T17:12:15Z</time>
      </trkpt>
      <trkpt lat="43.55912" lon="1.13309">
        <ele>231</ele>
        <time>2020-01-28T17:12:24Z</time>
      </trkpt>
      <trkpt lat="43.55903" lon="1.13313">
        <ele>230</ele>
        <time>2020-01-28T17:12:32Z</time>
      </trkpt>
      <trkpt lat="43.55893" lon="1.13312">
        <ele>230</ele>
        <time>2020-01-28T17:12:39Z</time>
      </trkpt>
      <trkpt lat="43.55883" lon="1.13311">
        <ele>229</ele>
        <time>2020-01-28T17:12:48Z</time>
      </trkpt>
      <trkpt lat="43.55873" lon="1.13312">
        <ele>229</ele>
        <time>2020-01-28T17:12:56Z</time>
      </trkpt>
      <trkpt lat="43.55863" lon="1.13307">
        <ele>229</ele>
        <time>2020-01-28T17:13:04Z</time>
      </trkpt>
      <trkpt lat="43.55855" lon="1.13301">
        <ele>228</ele>
        <time>2020-01-28T17:13:12Z</time>
      </trkpt>
      <trkpt lat="43.55846" lon="1.133">
        <ele>231</ele>
        <time>2020-01-28T17:13:20Z</time>
      </trkpt>
      <trkpt lat="43.55839" lon="1.1331">
        <ele>235</ele>
        <time>2020-01-28T17:13:28Z</time>
      </trkpt>
      <trkpt lat="43.55834" lon="1.13346">
        <ele>248.5</ele>
        <time>2020-01-28T17:13:50Z</time>
      </trkpt>
      <trkpt lat="43.55823" lon="1.13416">
        <ele>258</ele>
        <time>2020-01-28T17:14:31Z</time>
      </trkpt>
      <trkpt lat="43.55817" lon="1.13428">
        <ele>259</ele>
        <time>2020-01-28T17:14:40Z</time>
      </trkpt>
      <trkpt lat="43.55817" lon="1.13441">
        <ele>260</ele>
        <time>2020-01-28T17:14:48Z</time>
      </trkpt>
      <trkpt lat="43.55818" lon="1.13457">
        <ele>261</ele>
        <time>2020-01-28T17:14:57Z</time>
      </trkpt>
      <trkpt lat="43.55815" lon="1.13471">
        <ele>263</ele>
        <time>2020-01-28T17:15:05Z</time>
      </trkpt>
      <trkpt lat="43.55816" lon="1.13485">
        <ele>263</ele>
        <time>2020-01-28T17:15:14Z</time>
      </trkpt>
      <trkpt lat="43.55816" lon="1.13497">
        <ele>261</ele>
        <time>2020-01-28T17:15:21Z</time>
      </trkpt>
      <trkpt lat="43.5582" lon="1.13509">
        <ele>260</ele>
        <time>2020-01-28T17:15:29Z</time>
      </trkpt>
      <trkpt lat="43.55828" lon="1.13518">
        <ele>260</ele>
        <time>2020-01-28T17:15:37Z</time>
      </trkpt>
      <trkpt lat="43.55837" lon="1.13513">
        <ele>260</ele>
        <time>2020-01-28T17:15:44Z</time>
      </trkpt>
      <trkpt lat="43.55848" lon="1.13514">
        <ele>257</ele>
        <time>2020-01-28T17:15:53Z</time>
      </trkpt>
      <trkpt lat="43.55852" lon="1.13528">
        <ele>256</ele>
        <time>2020-01-28T17:16:02Z</time>
      </trkpt>
      <trkpt lat="43.55853" lon="1.1354">
        <ele>256</ele>
        <time>2020-01-28T17:16:09Z</time>
      </trkpt>
      <trkpt lat="43.55857" lon="1.13551">
        <ele>255</ele>
        <time>2020-01-28T17:16:16Z</time>
      </trkpt>
      <trkpt lat="43.55861" lon="1.13563">
        <ele>252</ele>
        <time>2020-01-28T17:16:24Z</time>
      </trkpt>
      <trkpt lat="43.55867" lon="1.13573">
        <ele>250</ele>
        <time>2020-01-28T17:16:32Z</time>
      </trkpt>
      <trkpt lat="43.55871" lon="1.13584">
        <ele>248</ele>
        <time>2020-01-28T17:16:39Z</time>
      </trkpt>
      <trkpt lat="43.55876" lon="1.13596">
        <ele>245</ele>
        <time>2020-01-28T17:16:47Z</time>
      </trkpt>
      <trkpt lat="43.55879" lon="1.13608">
        <ele>241</ele>
        <time>2020-01-28T17:16:56Z</time>
      </trkpt>
      <trkpt lat="43.55879" lon="1.13621">
        <ele>241</ele>
        <time>2020-01-28T17:17:03Z</time>
      </trkpt>
      <trkpt lat="43.55877" lon="1.13635">
        <ele>241</ele>
        <time>2020-01-28T17:17:11Z</time>
      </trkpt>
      <trkpt lat="43.55873" lon="1.13648">
        <ele>241</ele>
        <time>2020-01-28T17:17:20Z</time>
      </trkpt>
      <trkpt lat="43.55869" lon="1.1366">
        <ele>241</ele>
        <time>2020-01-28T17:17:27Z</time>
      </trkpt>
      <trkpt lat="43.55863" lon="1.13671">
        <ele>241</ele>
        <time>2020-01-28T17:17:36Z</time>
      </trkpt>
      <trkpt lat="43.55864" lon="1.13685">
        <ele>239</ele>
        <time>2020-01-28T17:17:44Z</time>
      </trkpt>
      <trkpt lat="43.55864" lon="1.13699">
        <ele>238</ele>
        <time>2020-01-28T17:17:52Z</time>
      </trkpt>
      <trkpt lat="43.55857" lon="1.1371">
        <ele>238</ele>
        <time>2020-01-28T17:18:00Z</time>
      </trkpt>
      <trkpt lat="43.55856" lon="1.13724">
        <ele>238</ele>
        <time>2020-01-28T17:18:09Z</time>
      </trkpt>
      <trkpt lat="43.55857" lon="1.13738">
        <ele>236</ele>
        <time>2020-01-28T17:18:17Z</time>
      </trkpt>
      <trkpt lat="43.5586" lon="1.13752">
        <ele>234</ele>
        <time>2020-01-28T17:18:25Z</time>
      </trkpt>
      <trkpt lat="43.55863" lon="1.13764">
        <ele>231</ele>
        <time>2020-01-28T17:18:33Z</time>
      </trkpt>
      <trkpt lat="43.55862" lon="1.13777">
        <ele>227</ele>
        <time>2020-01-28T17:18:41Z</time>
      </trkpt>
      <trkpt lat="43.55828" lon="1.13777">
        <ele>241.4</ele>
        <time>2020-01-28T17:19:08Z</time>
      </trkpt>
      <trkpt lat="43.55816" lon="1.13807">
        <ele>243.3</ele>
        <time>2020-01-28T17:19:28Z</time>
      </trkpt>
      <trkpt lat="43.5582" lon="1.13877">
        <ele>245.1</ele>
        <time>2020-01-28T17:20:09Z</time>
      </trkpt>
      <trkpt lat="43.55834" lon="1.13935">
        <ele>246</ele>
        <time>2020-01-28T17:20:44Z</time>
      </trkpt>
      <trkpt lat="43.5583" lon="1.13987">
        <ele>236</ele>
        <time>2020-01-28T17:21:15Z</time>
      </trkpt>
      <trkpt lat="43.55833" lon="1.14001">
        <ele>237</ele>
        <time>2020-01-28T17:21:23Z</time>
      </trkpt>
      <trkpt lat="43.55834" lon="1.14014">
        <ele>237</ele>
        <time>2020-01-28T17:21:31Z</time>
      </trkpt>
      <trkpt lat="43.55833" lon="1.1405">
        <ele>243.2</ele>
        <time>2020-01-28T17:21:52Z</time>
      </trkpt>
      <trkpt lat="43.55838" lon="1.14092">
        <ele>241.6</ele>
        <time>2020-01-28T17:22:16Z</time>
      </trkpt>
      <trkpt lat="43.55834" lon="1.14216">
        <ele>240.9</ele>
        <time>2020-01-28T17:23:29Z</time>
      </trkpt>
      <trkpt lat="43.55848" lon="1.14376">
        <ele>239.7</ele>
        <time>2020-01-28T17:25:02Z</time>
      </trkpt>
      <trkpt lat="43.55865" lon="1.1451">
        <ele>243</ele>
        <time>2020-01-28T17:26:22Z</time>
      </trkpt>
      <trkpt lat="43.55865" lon="1.14548">
        <ele>242.4</ele>
        <time>2020-01-28T17:26:43Z</time>
      </trkpt>
      <trkpt lat="43.55849" lon="1.14558">
        <ele>244.2</ele>
        <time>2020-01-28T17:26:57Z</time>
      </trkpt>
      <trkpt lat="43.55883" lon="1.14659">
        <ele>235</ele>
        <time>2020-01-28T17:28:02Z</time>
      </trkpt>
      <trkpt lat="43.55888" lon="1.1467">
        <ele>231</ele>
        <time>2020-01-28T17:28:10Z</time>
      </trkpt>
      <trkpt lat="43.55891" lon="1.14682">
        <ele>230</ele>
        <time>2020-01-28T17:28:17Z</time>
      </trkpt>
      <trkpt lat="43.55894" lon="1.14694">
        <ele>230</ele>
        <time>2020-01-28T17:28:25Z</time>
      </trkpt>
      <trkpt lat="43.55896" lon="1.14708">
        <ele>230</ele>
        <time>2020-01-28T17:28:33Z</time>
      </trkpt>
      <trkpt lat="43.55898" lon="1.1472">
        <ele>230</ele>
        <time>2020-01-28T17:28:40Z</time>
      </trkpt>
      <trkpt lat="43.55901" lon="1.14734">
        <ele>230</ele>
        <time>2020-01-28T17:28:48Z</time>
      </trkpt>
      <trkpt lat="43.55905" lon="1.14745">
        <ele>229</ele>
        <time>2020-01-28T17:28:56Z</time>
      </trkpt>
      <trkpt lat="43.55909" lon="1.14757">
        <ele>229</ele>
        <time>2020-01-28T17:29:03Z</time>
      </trkpt>
      <trkpt lat="43.55913" lon="1.14768">
        <ele>229</ele>
        <time>2020-01-28T17:29:10Z</time>
      </trkpt>
      <trkpt lat="43.55915" lon="1.14782">
        <ele>230</ele>
        <time>2020-01-28T17:29:19Z</time>
      </trkpt>
      <trkpt lat="43.55917" lon="1.14794">
        <ele>230</ele>
        <time>2020-01-28T17:29:26Z</time>
      </trkpt>
      <trkpt lat="43.5592" lon="1.14807">
        <ele>229</ele>
        <time>2020-01-28T17:29:34Z</time>
      </trkpt>
      <trkpt lat="43.55923" lon="1.14821">
        <ele>228</ele>
        <time>2020-01-28T17:29:42Z</time>
      </trkpt>
      <trkpt lat="43.55928" lon="1.14833">
        <ele>227</ele>
        <time>2020-01-28T17:29:50Z</time>
      </trkpt>
      <trkpt lat="43.55923" lon="1.14844">
        <ele>230</ele>
        <time>2020-01-28T17:29:58Z</time>
      </trkpt>
      <trkpt lat="43.55914" lon="1.14847">
        <ele>231</ele>
        <time>2020-01-28T17:30:05Z</time>
      </trkpt>
      <trkpt lat="43.55907" lon="1.14855">
        <ele>230</ele>
        <time>2020-01-28T17:30:13Z</time>
      </trkpt>
      <trkpt lat="43.55899" lon="1.14861">
        <ele>230</ele>
        <time>2020-01-28T17:30:20Z</time>
      </trkpt>
      <trkpt lat="43.5589" lon="1.14867">
        <ele>232</ele>
        <time>2020-01-28T17:30:28Z</time>
      </trkpt>
      <trkpt lat="43.55882" lon="1.14873">
        <ele>233</ele>
        <time>2020-01-28T17:30:36Z</time>
      </trkpt>
      <trkpt lat="43.55873" lon="1.14876">
        <ele>233</ele>
        <time>2020-01-28T17:30:43Z</time>
      </trkpt>
      <trkpt lat="43.55863" lon="1.1488">
        <ele>233</ele>
        <time>2020-01-28T17:30:51Z</time>
      </trkpt>
      <trkpt lat="43.55855" lon="1.14885">
        <ele>234</ele>
        <time>2020-01-28T17:30:58Z</time>
      </trkpt>
      <trkpt lat="43.55845" lon="1.1489">
        <ele>235</ele>
        <time>2020-01-28T17:31:06Z</time>
      </trkpt>
      <trkpt lat="43.55837" lon="1.14895">
        <ele>235</ele>
        <time>2020-01-28T17:31:14Z</time>
      </trkpt>
      <trkpt lat="43.55828" lon="1.14899">
        <ele>237</ele>
        <time>2020-01-28T17:31:21Z</time>
      </trkpt>
      <trkpt lat="43.55819" lon="1.14905">
        <ele>238</ele>
        <time>2020-01-28T17:31:30Z</time>
      </trkpt>
      <trkpt lat="43.55811" lon="1.1491">
        <ele>238</ele>
        <time>2020-01-28T17:31:37Z</time>
      </trkpt>
      <trkpt lat="43.55802" lon="1.14916">
        <ele>240</ele>
        <time>2020-01-28T17:31:45Z</time>
      </trkpt>
      <trkpt lat="43.55792" lon="1.14917">
        <ele>241</ele>
        <time>2020-01-28T17:31:53Z</time>
      </trkpt>
      <trkpt lat="43.55784" lon="1.14922">
        <ele>242</ele>
        <time>2020-01-28T17:32:00Z</time>
      </trkpt>
      <trkpt lat="43.55775" lon="1.14928">
        <ele>244</ele>
        <time>2020-01-28T17:32:08Z</time>
      </trkpt>
      <trkpt lat="43.55767" lon="1.14933">
        <ele>245</ele>
        <time>2020-01-28T17:32:15Z</time>
      </trkpt>
      <trkpt lat="43.55757" lon="1.14936">
        <ele>247</ele>
        <time>2020-01-28T17:32:23Z</time>
      </trkpt>
      <trkpt lat="43.55747" lon="1.14938">
        <ele>249</ele>
        <time>2020-01-28T17:32:31Z</time>
      </trkpt>
      <trkpt lat="43.55738" lon="1.14943">
        <ele>252</ele>
        <time>2020-01-28T17:32:39Z</time>
      </trkpt>
      <trkpt lat="43.5573" lon="1.14949">
        <ele>253</ele>
        <time>2020-01-28T17:32:47Z</time>
      </trkpt>
      <trkpt lat="43.5572" lon="1.14952">
        <ele>253</ele>
        <time>2020-01-28T17:32:55Z</time>
      </trkpt>
      <trkpt lat="43.55712" lon="1.14958">
        <ele>252</ele>
        <time>2020-01-28T17:33:02Z</time>
      </trkpt>
      <trkpt lat="43.55703" lon="1.14962">
        <ele>253</ele>
        <time>2020-01-28T17:33:10Z</time>
      </trkpt>
      <trkpt lat="43.55694" lon="1.14966">
        <ele>254</ele>
        <time>2020-01-28T17:33:18Z</time>
      </trkpt>
      <trkpt lat="43.55684" lon="1.14973">
        <ele>255</ele>
        <time>2020-01-28T17:33:26Z</time>
      </trkpt>
      <trkpt lat="43.55674" lon="1.14982">
        <ele>261.4</ele>
        <time>2020-01-28T17:33:36Z</time>
      </trkpt>
      <trkpt lat="43.55683" lon="1.15038">
        <ele>256</ele>
        <time>2020-01-28T17:34:10Z</time>
      </trkpt>
      <trkpt lat="43.55687" lon="1.15051">
        <ele>256</ele>
        <time>2020-01-28T17:34:18Z</time>
      </trkpt>
      <trkpt lat="43.55693" lon="1.15062">
        <ele>256</ele>
        <time>2020-01-28T17:34:26Z</time>
      </trkpt>
      <trkpt lat="43.55695" lon="1.15075">
        <ele>256</ele>
        <time>2020-01-28T17:34:34Z</time>
      </trkpt>
      <trkpt lat="43.55694" lon="1.15089">
        <ele>257</ele>
        <time>2020-01-28T17:34:42Z</time>
      </trkpt>
      <trkpt lat="43.55694" lon="1.15102">
        <ele>259</ele>
        <time>2020-01-28T17:34:49Z</time>
      </trkpt>
      <trkpt lat="43.55693" lon="1.15115">
        <ele>260</ele>
        <time>2020-01-28T17:34:57Z</time>
      </trkpt>
      <trkpt lat="43.55696" lon="1.15128">
        <ele>261</ele>
        <time>2020-01-28T17:35:05Z</time>
      </trkpt>
      <trkpt lat="43.55696" lon="1.15142">
        <ele>264</ele>
        <time>2020-01-28T17:35:14Z</time>
      </trkpt>
      <trkpt lat="43.5571" lon="1.15264">
        <ele>269.4</ele>
        <time>2020-01-28T17:36:25Z</time>
      </trkpt>
      <trkpt lat="43.55721" lon="1.15348">
        <ele>272.5</ele>
        <time>2020-01-28T17:37:15Z</time>
      </trkpt>
      <trkpt lat="43.55734" lon="1.15405">
        <ele>271</ele>
        <time>2020-01-28T17:37:50Z</time>
      </trkpt>
      <trkpt lat="43.55743" lon="1.15409">
        <ele>273</ele>
        <time>2020-01-28T17:37:57Z</time>
      </trkpt>
      <trkpt lat="43.55753" lon="1.15413">
        <ele>273</ele>
        <time>2020-01-28T17:38:05Z</time>
      </trkpt>
      <trkpt lat="43.55759" lon="1.15422">
        <ele>273</ele>
        <time>2020-01-28T17:38:13Z</time>
      </trkpt>
      <trkpt lat="43.55762" lon="1.15435">
        <ele>276</ele>
        <time>2020-01-28T17:38:21Z</time>
      </trkpt>
      <trkpt lat="43.55758" lon="1.15447">
        <ele>277</ele>
        <time>2020-01-28T17:38:29Z</time>
      </trkpt>
      <trkpt lat="43.55754" lon="1.15459">
        <ele>278</ele>
        <time>2020-01-28T17:38:36Z</time>
      </trkpt>
      <trkpt lat="43.55752" lon="1.15472">
        <ele>277</ele>
        <time>2020-01-28T17:38:44Z</time>
      </trkpt>
      <trkpt lat="43.5575" lon="1.15486">
        <ele>275</ele>
        <time>2020-01-28T17:38:52Z</time>
      </trkpt>
      <trkpt lat="43.55747" lon="1.15499">
        <ele>274</ele>
        <time>2020-01-28T17:39:00Z</time>
      </trkpt>
      <trkpt lat="43.55744" lon="1.15511">
        <ele>272</ele>
        <time>2020-01-28T17:39:08Z</time>
      </trkpt>
      <trkpt lat="43.55739" lon="1.15521">
        <ele>269</ele>
        <time>2020-01-28T17:39:15Z</time>
      </trkpt>
      <trkpt lat="43.55735" lon="1.15533">
        <ele>266</ele>
        <time>2020-01-28T17:39:23Z</time>
      </trkpt>
      <trkpt lat="43.55731" lon="1.15546">
        <ele>264</ele>
        <time>2020-01-28T17:39:32Z</time>
      </trkpt>
      <trkpt lat="43.55726" lon="1.15557">
        <ele>261</ele>
        <time>2020-01-28T17:39:39Z</time>
      </trkpt>
      <trkpt lat="43.55722" lon="1.1557">
        <ele>261</ele>
        <time>2020-01-28T17:39:48Z</time>
      </trkpt>
      <trkpt lat="43.55715" lon="1.1558">
        <ele>261</ele>
        <time>2020-01-28T17:39:55Z</time>
      </trkpt>
      <trkpt lat="43.5571" lon="1.15592">
        <ele>260</ele>
        <time>2020-01-28T17:40:04Z</time>
      </trkpt>
      <trkpt lat="43.55698" lon="1.15629">
        <ele>266</ele>
        <time>2020-01-28T17:40:27Z</time>
      </trkpt>
      <trkpt lat="43.55691" lon="1.15646">
        <ele>264.1</ele>
        <time>2020-01-28T17:40:39Z</time>
      </trkpt>
      <trkpt lat="43.55716" lon="1.15656">
        <ele>249</ele>
        <time>2020-01-28T17:41:00Z</time>
      </trkpt>
      <trkpt lat="43.55717" lon="1.1567">
        <ele>246</ele>
        <time>2020-01-28T17:41:08Z</time>
      </trkpt>
      <trkpt lat="43.55721" lon="1.15682">
        <ele>243</ele>
        <time>2020-01-28T17:41:16Z</time>
      </trkpt>
      <trkpt lat="43.55724" lon="1.15694">
        <ele>240</ele>
        <time>2020-01-28T17:41:24Z</time>
      </trkpt>
      <trkpt lat="43.55723" lon="1.15708">
        <ele>238</ele>
        <time>2020-01-28T17:41:33Z</time>
      </trkpt>
      <trkpt lat="43.55716" lon="1.15718">
        <ele>237</ele>
        <time>2020-01-28T17:41:41Z</time>
      </trkpt>
      <trkpt lat="43.5571" lon="1.15727">
        <ele>236</ele>
        <time>2020-01-28T17:41:48Z</time>
      </trkpt>
      <trkpt lat="43.55705" lon="1.1574">
        <ele>235</ele>
        <time>2020-01-28T17:41:57Z</time>
      </trkpt>
      <trkpt lat="43.557" lon="1.15753">
        <ele>235</ele>
        <time>2020-01-28T17:42:05Z</time>
      </trkpt>
      <trkpt lat="43.55693" lon="1.15762">
        <ele>234</ele>
        <time>2020-01-28T17:42:13Z</time>
      </trkpt>
      <trkpt lat="43.55687" lon="1.15774">
        <ele>233</ele>
        <time>2020-01-28T17:42:21Z</time>
      </trkpt>
      <trkpt lat="43.55681" lon="1.15784">
        <ele>233</ele>
        <time>2020-01-28T17:42:28Z</time>
      </trkpt>
      <trkpt lat="43.55671" lon="1.15817">
        <ele>251.5</ele>
        <time>2020-01-28T17:42:49Z</time>
      </trkpt>
      <trkpt lat="43.55699" lon="1.15856">
        <ele>226</ele>
        <time>2020-01-28T17:43:21Z</time>
      </trkpt>
      <trkpt lat="43.55701" lon="1.15869">
        <ele>225</ele>
        <time>2020-01-28T17:43:29Z</time>
      </trkpt>
      <trkpt lat="43.55703" lon="1.15883">
        <ele>225</ele>
        <time>2020-01-28T17:43:37Z</time>
      </trkpt>
      <trkpt lat="43.55699" lon="1.15896">
        <ele>226</ele>
        <time>2020-01-28T17:43:45Z</time>
      </trkpt>
      <trkpt lat="43.55692" lon="1.15905">
        <ele>228</ele>
        <time>2020-01-28T17:43:53Z</time>
      </trkpt>
      <trkpt lat="43.55686" lon="1.15915">
        <ele>228</ele>
        <time>2020-01-28T17:44:01Z</time>
      </trkpt>
      <trkpt lat="43.55686" lon="1.15929">
        <ele>227</ele>
        <time>2020-01-28T17:44:09Z</time>
      </trkpt>
      <trkpt lat="43.55688" lon="1.15944">
        <ele>227</ele>
        <time>2020-01-28T17:44:17Z</time>
      </trkpt>
      <trkpt lat="43.5569" lon="1.15957">
        <ele>228</ele>
        <time>2020-01-28T17:44:25Z</time>
      </trkpt>
      <trkpt lat="43.5569" lon="1.1597">
        <ele>227</ele>
        <time>2020-01-28T17:44:33Z</time>
      </trkpt>
      <trkpt lat="43.55688" lon="1.15983">
        <ele>227</ele>
        <time>2020-01-28T17:44:40Z</time>
      </trkpt>
      <trkpt lat="43.55689" lon="1.15995">
        <ele>227</ele>
        <time>2020-01-28T17:44:48Z</time>
      </trkpt>
      <trkpt lat="43.55689" lon="1.16008">
        <ele>226</ele>
        <time>2020-01-28T17:44:55Z</time>
      </trkpt>
      <trkpt lat="43.55693" lon="1.16019">
        <ele>224</ele>
        <time>2020-01-28T17:45:03Z</time>
      </trkpt>
      <trkpt lat="43.55696" lon="1.16032">
        <ele>222</ele>
        <time>2020-01-28T17:45:11Z</time>
      </trkpt>
      <trkpt lat="43.55691" lon="1.16044">
        <ele>220</ele>
        <time>2020-01-28T17:45:19Z</time>
      </trkpt>
      <trkpt lat="43.55683" lon="1.1605">
        <ele>219</ele>
        <time>2020-01-28T17:45:26Z</time>
      </trkpt>
      <trkpt lat="43.55675" lon="1.16061">
        <ele>218</ele>
        <time>2020-01-28T17:45:35Z</time>
      </trkpt>
      <trkpt lat="43.5567" lon="1.16071">
        <ele>217</ele>
        <time>2020-01-28T17:45:42Z</time>
      </trkpt>
      <trkpt lat="43.55666" lon="1.16082">
        <ele>219</ele>
        <time>2020-01-28T17:45:50Z</time>
      </trkpt>
      <trkpt lat="43.55659" lon="1.1609">
        <ele>220</ele>
        <time>2020-01-28T17:45:57Z</time>
      </trkpt>
      <trkpt lat="43.55652" lon="1.16099">
        <ele>221</ele>
        <time>2020-01-28T17:46:05Z</time>
      </trkpt>
      <trkpt lat="43.55643" lon="1.16108">
        <ele>221</ele>
        <time>2020-01-28T17:46:13Z</time>
      </trkpt>
      <trkpt lat="43.55641" lon="1.16121">
        <ele>221</ele>
        <time>2020-01-28T17:46:21Z</time>
      </trkpt>
      <trkpt lat="43.55637" lon="1.16133">
        <ele>221</ele>
        <time>2020-01-28T17:46:29Z</time>
      </trkpt>
      <trkpt lat="43.5563" lon="1.16143">
        <ele>220</ele>
        <time>2020-01-28T17:46:37Z</time>
      </trkpt>
      <trkpt lat="43.55622" lon="1.16151">
        <ele>220</ele>
        <time>2020-01-28T17:46:45Z</time>
      </trkpt>
      <trkpt lat="43.55614" lon="1.16159">
        <ele>221</ele>
        <time>2020-01-28T17:46:53Z</time>
      </trkpt>
      <trkpt lat="43.55606" lon="1.16166">
        <ele>222</ele>
        <time>2020-01-28T17:47:00Z</time>
      </trkpt>
      <trkpt lat="43.55599" lon="1.16176">
        <ele>223</ele>
        <time>2020-01-28T17:47:09Z</time>
      </trkpt>
      <trkpt lat="43.55589" lon="1.16183">
        <ele>225</ele>
        <time>2020-01-28T17:47:18Z</time>
      </trkpt>
      <trkpt lat="43.55581" lon="1.16191">
        <ele>228</ele>
        <time>2020-01-28T17:47:26Z</time>
      </trkpt>
      <trkpt lat="43.55574" lon="1.16199">
        <ele>229</ele>
        <time>2020-01-28T17:47:33Z</time>
      </trkpt>
      <trkpt lat="43.55568" lon="1.16209">
        <ele>230</ele>
        <time>2020-01-28T17:47:41Z</time>
      </trkpt>
      <trkpt lat="43.55561" lon="1.16216">
        <ele>230</ele>
        <time>2020-01-28T17:47:48Z</time>
      </trkpt>
      <trkpt lat="43.55553" lon="1.16224">
        <ele>231</ele>
        <time>2020-01-28T17:47:56Z</time>
      </trkpt>
      <trkpt lat="43.55549" lon="1.16235">
        <ele>231</ele>
        <time>2020-01-28T17:48:03Z</time>
      </trkpt>
      <trkpt lat="43.5554" lon="1.16243">
        <ele>231</ele>
        <time>2020-01-28T17:48:11Z</time>
      </trkpt>
      <trkpt lat="43.55533" lon="1.16251">
        <ele>231</ele>
        <time>2020-01-28T17:48:19Z</time>
      </trkpt>
      <trkpt lat="43.5553" lon="1.16265">
        <ele>230</ele>
        <time>2020-01-28T17:48:27Z</time>
      </trkpt>
      <trkpt lat="43.55476" lon="1.16329">
        <ele>225.3</ele>
        <time>2020-01-28T17:49:24Z</time>
      </trkpt>
      <trkpt lat="43.55447" lon="1.16341">
        <ele>224.4</ele>
        <time>2020-01-28T17:49:48Z</time>
      </trkpt>
      <trkpt lat="43.55428" lon="1.16334">
        <ele>223</ele>
        <time>2020-01-28T17:50:04Z</time>
      </trkpt>
      <trkpt lat="43.55424" lon="1.16346">
        <ele>221</ele>
        <time>2020-01-28T17:50:12Z</time>
      </trkpt>
      <trkpt lat="43.5542" lon="1.16359">
        <ele>219</ele>
        <time>2020-01-28T17:50:20Z</time>
      </trkpt>
      <trkpt lat="43.55418" lon="1.16371">
        <ele>217</ele>
        <time>2020-01-28T17:50:28Z</time>
      </trkpt>
      <trkpt lat="43.55414" lon="1.16383">
        <ele>216</ele>
        <time>2020-01-28T17:50:35Z</time>
      </trkpt>
      <trkpt lat="43.55411" lon="1.16395">
        <ele>214</ele>
        <time>2020-01-28T17:50:43Z</time>
      </trkpt>
      <trkpt lat="43.55409" lon="1.16407">
        <ele>213</ele>
        <time>2020-01-28T17:50:50Z</time>
      </trkpt>
      <trkpt lat="43.55405" lon="1.16419">
        <ele>211</ele>
        <time>2020-01-28T17:50:58Z</time>
      </trkpt>
      <trkpt lat="43.554" lon="1.1643">
        <ele>210</ele>
        <time>2020-01-28T17:51:06Z</time>
      </trkpt>
      <trkpt lat="43.55397" lon="1.16444">
        <ele>209</ele>
        <time>2020-01-28T17:51:14Z</time>
      </trkpt>
      <trkpt lat="43.55393" lon="1.16457">
        <ele>207</ele>
        <time>2020-01-28T17:51:22Z</time>
      </trkpt>
      <trkpt lat="43.55394" lon="1.16471">
        <ele>205</ele>
        <time>2020-01-28T17:51:30Z</time>
      </trkpt>
      <trkpt lat="43.55397" lon="1.16485">
        <ele>203</ele>
        <time>2020-01-28T17:51:39Z</time>
      </trkpt>
      <trkpt lat="43.55398" lon="1.165">
        <ele>203</ele>
        <time>2020-01-28T17:51:48Z</time>
      </trkpt>
      <trkpt lat="43.55404" lon="1.16509">
        <ele>201</ele>
        <time>2020-01-28T17:51:56Z</time>
      </trkpt>
      <trkpt lat="43.55415" lon="1.16511">
        <ele>201</ele>
        <time>2020-01-28T17:52:04Z</time>
      </trkpt>
      <trkpt lat="43.55423" lon="1.16516">
        <ele>202</ele>
        <time>2020-01-28T17:52:11Z</time>
      </trkpt>
      <trkpt lat="43.55433" lon="1.16519">
        <ele>201</ele>
        <time>2020-01-28T17:52:19Z</time>
      </trkpt>
      <trkpt lat="43.55442" lon="1.16519">
        <ele>202</ele>
        <time>2020-01-28T17:52:27Z</time>
      </trkpt>
      <trkpt lat="43.55451" lon="1.16523">
        <ele>203</ele>
        <time>2020-01-28T17:52:35Z</time>
      </trkpt>
      <trkpt lat="43.55461" lon="1.16528">
        <ele>203</ele>
        <time>2020-01-28T17:52:43Z</time>
      </trkpt>
      <trkpt lat="43.5547" lon="1.1653">
        <ele>202</ele>
        <time>2020-01-28T17:52:50Z</time>
      </trkpt>
      <trkpt lat="43.5548" lon="1.16535">
        <ele>200</ele>
        <time>2020-01-28T17:52:59Z</time>
      </trkpt>
      <trkpt lat="43.55489" lon="1.16539">
        <ele>199</ele>
        <time>2020-01-28T17:53:07Z</time>
      </trkpt>
      <trkpt lat="43.55499" lon="1.1654">
        <ele>198</ele>
        <time>2020-01-28T17:53:14Z</time>
      </trkpt>
      <trkpt lat="43.55508" lon="1.16542">
        <ele>197</ele>
        <time>2020-01-28T17:53:22Z</time>
      </trkpt>
      <trkpt lat="43.55517" lon="1.16543">
        <ele>197</ele>
        <time>2020-01-28T17:53:29Z</time>
      </trkpt>
      <trkpt lat="43.55527" lon="1.16546">
        <ele>196</ele>
        <time>2020-01-28T17:53:37Z</time>
      </trkpt>
      <trkpt lat="43.55536" lon="1.1655">
        <ele>196</ele>
        <time>2020-01-28T17:53:45Z</time>
      </trkpt>
      <trkpt lat="43.55546" lon="1.16549">
        <ele>197</ele>
        <time>2020-01-28T17:53:53Z</time>
      </trkpt>
      <trkpt lat="43.55555" lon="1.16551">
        <ele>199</ele>
        <time>2020-01-28T17:54:00Z</time>
      </trkpt>
      <trkpt lat="43.55564" lon="1.16555">
        <ele>201</ele>
        <time>2020-01-28T17:54:08Z</time>
      </trkpt>
      <trkpt lat="43.55574" lon="1.16557">
        <ele>202</ele>
        <time>2020-01-28T17:54:16Z</time>
      </trkpt>
      <trkpt lat="43.55584" lon="1.16557">
        <ele>202</ele>
        <time>2020-01-28T17:54:24Z</time>
      </trkpt>
      <trkpt lat="43.55594" lon="1.16559">
        <ele>203</ele>
        <time>2020-01-28T17:54:32Z</time>
      </trkpt>
      <trkpt lat="43.55603" lon="1.16561">
        <ele>204</ele>
        <time>2020-01-28T17:54:40Z</time>
      </trkpt>
      <trkpt lat="43.55614" lon="1.16561">
        <ele>207</ele>
        <time>2020-01-28T17:54:48Z</time>
      </trkpt>
      <trkpt lat="43.55623" lon="1.16561">
        <ele>209</ele>
        <time>2020-01-28T17:54:56Z</time>
      </trkpt>
      <trkpt lat="43.55631" lon="1.16565">
        <ele>211</ele>
        <time>2020-01-28T17:55:03Z</time>
      </trkpt>
      <trkpt lat="43.5564" lon="1.16563">
        <ele>213</ele>
        <time>2020-01-28T17:55:11Z</time>
      </trkpt>
      <trkpt lat="43.5565" lon="1.16562">
        <ele>213</ele>
        <time>2020-01-28T17:55:18Z</time>
      </trkpt>
      <trkpt lat="43.55659" lon="1.16564">
        <ele>214</ele>
        <time>2020-01-28T17:55:25Z</time>
      </trkpt>
      <trkpt lat="43.55669" lon="1.16565">
        <ele>214</ele>
        <time>2020-01-28T17:55:33Z</time>
      </trkpt>
      <trkpt lat="43.55679" lon="1.16566">
        <ele>215</ele>
        <time>2020-01-28T17:55:41Z</time>
      </trkpt>
      <trkpt lat="43.55687" lon="1.16573">
        <ele>216</ele>
        <time>2020-01-28T17:55:49Z</time>
      </trkpt>
      <trkpt lat="43.55695" lon="1.16579">
        <ele>216</ele>
        <time>2020-01-28T17:55:57Z</time>
      </trkpt>
      <trkpt lat="43.55704" lon="1.16589">
        <ele>216</ele>
        <time>2020-01-28T17:56:06Z</time>
      </trkpt>
      <trkpt lat="43.55712" lon="1.16597">
        <ele>214</ele>
        <time>2020-01-28T17:56:13Z</time>
      </trkpt>
      <trkpt lat="43.55719" lon="1.16606">
        <ele>212</ele>
        <time>2020-01-28T17:56:21Z</time>
      </trkpt>
      <trkpt lat="43.55727" lon="1.16614">
        <ele>208</ele>
        <time>2020-01-28T17:56:30Z</time>
      </trkpt>
      <trkpt lat="43.55735" lon="1.16621">
        <ele>208</ele>
        <time>2020-01-28T17:56:37Z</time>
      </trkpt>
      <trkpt lat="43.55742" lon="1.1663">
        <ele>207</ele>
        <time>2020-01-28T17:56:45Z</time>
      </trkpt>
      <trkpt lat="43.55751" lon="1.16638">
        <ele>206</ele>
        <time>2020-01-28T17:56:53Z</time>
      </trkpt>
      <trkpt lat="43.55758" lon="1.16647">
        <ele>205</ele>
        <time>2020-01-28T17:57:02Z</time>
      </trkpt>
      <trkpt lat="43.55766" lon="1.16656">
        <ele>203</ele>
        <time>2020-01-28T17:57:10Z</time>
      </trkpt>
      <trkpt lat="43.55774" lon="1.16665">
        <ele>203</ele>
        <time>2020-01-28T17:57:18Z</time>
      </trkpt>
      <trkpt lat="43.55781" lon="1.16673">
        <ele>202</ele>
        <time>2020-01-28T17:57:25Z</time>
      </trkpt>
      <trkpt lat="43.55789" lon="1.1668">
        <ele>201</ele>
        <time>2020-01-28T17:57:33Z</time>
      </trkpt>
      <trkpt lat="43.55796" lon="1.16688">
        <ele>200</ele>
        <time>2020-01-28T17:57:41Z</time>
      </trkpt>
      <trkpt lat="43.55804" lon="1.16698">
        <ele>200</ele>
        <time>2020-01-28T17:57:49Z</time>
      </trkpt>
      <trkpt lat="43.55811" lon="1.16708">
        <ele>201</ele>
        <time>2020-01-28T17:57:57Z</time>
      </trkpt>
      <trkpt lat="43.55817" lon="1.16718">
        <ele>202</ele>
        <time>2020-01-28T17:58:05Z</time>
      </trkpt>
      <trkpt lat="43.55823" lon="1.16729">
        <ele>202</ele>
        <time>2020-01-28T17:58:13Z</time>
      </trkpt>
      <trkpt lat="43.55826" lon="1.16741">
        <ele>203</ele>
        <time>2020-01-28T17:58:20Z</time>
      </trkpt>
      <trkpt lat="43.55832" lon="1.16752">
        <ele>203</ele>
        <time>2020-01-28T17:58:28Z</time>
      </trkpt>
      <trkpt lat="43.55842" lon="1.16761">
        <ele>204</ele>
        <time>2020-01-28T17:58:38Z</time>
      </trkpt>
      <trkpt lat="43.55851" lon="1.16767">
        <ele>204</ele>
        <time>2020-01-28T17:58:46Z</time>
      </trkpt>
      <trkpt lat="43.55861" lon="1.16774">
        <ele>205</ele>
        <time>2020-01-28T17:58:55Z</time>
      </trkpt>
      <trkpt lat="43.55867" lon="1.16783">
        <ele>205</ele>
        <time>2020-01-28T17:59:02Z</time>
      </trkpt>
      <trkpt lat="43.55871" lon="1.16795">
        <ele>207</ele>
        <time>2020-01-28T17:59:10Z</time>
      </trkpt>
      <trkpt lat="43.55873" lon="1.16807">
        <ele>207</ele>
        <time>2020-01-28T17:59:17Z</time>
      </trkpt>
      <trkpt lat="43.55876" lon="1.16819">
        <ele>206</ele>
        <time>2020-01-28T17:59:24Z</time>
      </trkpt>
      <trkpt lat="43.55879" lon="1.16831">
        <ele>204</ele>
        <time>2020-01-28T17:59:32Z</time>
      </trkpt>
      <trkpt lat="43.55883" lon="1.16844">
        <ele>201</ele>
        <time>2020-01-28T17:59:41Z</time>
      </trkpt>
      <trkpt lat="43.55887" lon="1.16858">
        <ele>199</ele>
        <time>2020-01-28T17:59:49Z</time>
      </trkpt>
      <trkpt lat="43.55888" lon="1.16871">
        <ele>197</ele>
        <time>2020-01-28T17:59:57Z</time>
      </trkpt>
      <trkpt lat="43.55891" lon="1.16883">
        <ele>196</ele>
        <time>2020-01-28T18:00:05Z</time>
      </trkpt>
      <trkpt lat="43.55897" lon="1.16896">
        <ele>195</ele>
        <time>2020-01-28T18:00:14Z</time>
      </trkpt>
      <trkpt lat="43.55901" lon="1.16909">
        <ele>193</ele>
        <time>2020-01-28T18:00:21Z</time>
      </trkpt>
      <trkpt lat="43.55903" lon="1.16921">
        <ele>191</ele>
        <time>2020-01-28T18:00:29Z</time>
      </trkpt>
      <trkpt lat="43.55909" lon="1.16932">
        <ele>186</ele>
        <time>2020-01-28T18:00:38Z</time>
      </trkpt>
      <trkpt lat="43.55913" lon="1.16944">
        <ele>183</ele>
        <time>2020-01-28T18:00:46Z</time>
      </trkpt>
      <trkpt lat="43.55917" lon="1.16957">
        <ele>180</ele>
        <time>2020-01-28T18:00:54Z</time>
      </trkpt>
      <trkpt lat="43.55916" lon="1.16971">
        <ele>177</ele>
        <time>2020-01-28T18:01:03Z</time>
      </trkpt>
      <trkpt lat="43.55909" lon="1.16983">
        <ele>176</ele>
        <time>2020-01-28T18:01:11Z</time>
      </trkpt>
      <trkpt lat="43.55903" lon="1.16995">
        <ele>176</ele>
        <time>2020-01-28T18:01:20Z</time>
      </trkpt>
      <trkpt lat="43.55898" lon="1.17007">
        <ele>177</ele>
        <time>2020-01-28T18:01:28Z</time>
      </trkpt>
      <trkpt lat="43.55896" lon="1.17019">
        <ele>180</ele>
        <time>2020-01-28T18:01:36Z</time>
      </trkpt>
      <trkpt lat="43.55896" lon="1.17032">
        <ele>182</ele>
        <time>2020-01-28T18:01:43Z</time>
      </trkpt>
      <trkpt lat="43.55892" lon="1.17044">
        <ele>182</ele>
        <time>2020-01-28T18:01:51Z</time>
      </trkpt>
      <trkpt lat="43.55888" lon="1.17057">
        <ele>183</ele>
        <time>2020-01-28T18:01:59Z</time>
      </trkpt>
      <trkpt lat="43.55885" lon="1.1707">
        <ele>183</ele>
        <time>2020-01-28T18:02:07Z</time>
      </trkpt>
      <trkpt lat="43.55886" lon="1.17083">
        <ele>186</ele>
        <time>2020-01-28T18:02:15Z</time>
      </trkpt>
      <trkpt lat="43.55884" lon="1.17095">
        <ele>191</ele>
        <time>2020-01-28T18:02:23Z</time>
      </trkpt>
      <trkpt lat="43.55882" lon="1.17109">
        <ele>194</ele>
        <time>2020-01-28T18:02:32Z</time>
      </trkpt>
      <trkpt lat="43.55878" lon="1.17122">
        <ele>195</ele>
        <time>2020-01-28T18:02:40Z</time>
      </trkpt>
      <trkpt lat="43.55872" lon="1.17133">
        <ele>196</ele>
        <time>2020-01-28T18:02:48Z</time>
      </trkpt>
      <trkpt lat="43.55868" lon="1.17147">
        <ele>197</ele>
        <time>2020-01-28T18:02:57Z</time>
      </trkpt>
      <trkpt lat="43.55867" lon="1.17162">
        <ele>199</ele>
        <time>2020-01-28T18:03:05Z</time>
      </trkpt>
      <trkpt lat="43.55863" lon="1.17174">
        <ele>203</ele>
        <time>2020-01-28T18:03:14Z</time>
      </trkpt>
      <trkpt lat="43.5586" lon="1.17187">
        <ele>206</ele>
        <time>2020-01-28T18:03:22Z</time>
      </trkpt>
      <trkpt lat="43.55861" lon="1.17201">
        <ele>206</ele>
        <time>2020-01-28T18:03:30Z</time>
      </trkpt>
      <trkpt lat="43.55855" lon="1.17215">
        <ele>205</ele>
        <time>2020-01-28T18:03:39Z</time>
      </trkpt>
      <trkpt lat="43.55853" lon="1.17227">
        <ele>204</ele>
        <time>2020-01-28T18:03:46Z</time>
      </trkpt>
      <trkpt lat="43.5585" lon="1.17239">
        <ele>204</ele>
        <time>2020-01-28T18:03:54Z</time>
      </trkpt>
      <trkpt lat="43.55846" lon="1.17254">
        <ele>204</ele>
        <time>2020-01-28T18:04:03Z</time>
      </trkpt>
      <trkpt lat="43.55843" lon="1.17267">
        <ele>202</ele>
        <time>2020-01-28T18:04:11Z</time>
      </trkpt>
      <trkpt lat="43.55839" lon="1.17278">
        <ele>201</ele>
        <time>2020-01-28T18:04:18Z</time>
      </trkpt>
      <trkpt lat="43.55836" lon="1.1729">
        <ele>198</ele>
        <time>2020-01-28T18:04:26Z</time>
      </trkpt>
      <trkpt lat="43.55834" lon="1.17305">
        <ele>198</ele>
        <time>2020-01-28T18:04:35Z</time>
      </trkpt>
      <trkpt lat="43.55832" lon="1.17319">
        <ele>199</ele>
        <time>2020-01-28T18:04:43Z</time>
      </trkpt>
      <trkpt lat="43.55828" lon="1.17332">
        <ele>200</ele>
        <time>2020-01-28T18:04:52Z</time>
      </trkpt>
      <trkpt lat="43.55824" lon="1.17345">
        <ele>200</ele>
        <time>2020-01-28T18:05:00Z</time>
      </trkpt>
      <trkpt lat="43.55819" lon="1.17358">
        <ele>199</ele>
        <time>2020-01-28T18:05:08Z</time>
      </trkpt>
      <trkpt lat="43.55817" lon="1.1737">
        <ele>198</ele>
        <time>2020-01-28T18:05:16Z</time>
      </trkpt>
      <trkpt lat="43.55814" lon="1.17382">
        <ele>198</ele>
        <time>2020-01-28T18:05:23Z</time>
      </trkpt>
      <trkpt lat="43.55807" lon="1.17395">
        <ele>200</ele>
        <time>2020-01-28T18:05:32Z</time>
      </trkpt>
      <trkpt lat="43.55805" lon="1.17409">
        <ele>202</ele>
        <time>2020-01-28T18:05:41Z</time>
      </trkpt>
      <trkpt lat="43.55802" lon="1.17422">
        <ele>203</ele>
        <time>2020-01-28T18:05:49Z</time>
      </trkpt>
      <trkpt lat="43.55797" lon="1.17434">
        <ele>203</ele>
        <time>2020-01-28T18:05:57Z</time>
      </trkpt>
      <trkpt lat="43.55792" lon="1.17445">
        <ele>203</ele>
        <time>2020-01-28T18:06:04Z</time>
      </trkpt>
      <trkpt lat="43.55792" lon="1.17457">
        <ele>200</ele>
        <time>2020-01-28T18:06:12Z</time>
      </trkpt>
      <trkpt lat="43.55788" lon="1.1747">
        <ele>201</ele>
        <time>2020-01-28T18:06:20Z</time>
      </trkpt>
      <trkpt lat="43.55785" lon="1.17482">
        <ele>200</ele>
        <time>2020-01-28T18:06:27Z</time>
      </trkpt>
      <trkpt lat="43.55785" lon="1.17496">
        <ele>199</ele>
        <time>2020-01-28T18:06:36Z</time>
      </trkpt>
      <trkpt lat="43.55782" lon="1.1751">
        <ele>199</ele>
        <time>2020-01-28T18:06:44Z</time>
      </trkpt>
      <trkpt lat="43.55778" lon="1.17522">
        <ele>200</ele>
        <time>2020-01-28T18:06:52Z</time>
      </trkpt>
      <trkpt lat="43.55775" lon="1.17534">
        <ele>204</ele>
        <time>2020-01-28T18:07:00Z</time>
      </trkpt>
      <trkpt lat="43.55774" lon="1.17547">
        <ele>203</ele>
        <time>2020-01-28T18:07:07Z</time>
      </trkpt>
      <trkpt lat="43.55773" lon="1.17559">
        <ele>203</ele>
        <time>2020-01-28T18:07:14Z</time>
      </trkpt>
      <trkpt lat="43.55769" lon="1.17572">
        <ele>203</ele>
        <time>2020-01-28T18:07:22Z</time>
      </trkpt>
      <trkpt lat="43.55765" lon="1.17583">
        <ele>203</ele>
        <time>2020-01-28T18:07:30Z</time>
      </trkpt>
      <trkpt lat="43.55761" lon="1.17596">
        <ele>204</ele>
        <time>2020-01-28T18:07:38Z</time>
      </trkpt>
      <trkpt lat="43.5576" lon="1.17608">
        <ele>204</ele>
        <time>2020-01-28T18:07:45Z</time>
      </trkpt>
      <trkpt lat="43.55757" lon="1.1762">
        <ele>204</ele>
        <time>2020-01-28T18:07:53Z</time>
      </trkpt>
      <trkpt lat="43.55753" lon="1.17632">
        <ele>204</ele>
        <time>2020-01-28T18:08:00Z</time>
      </trkpt>
      <trkpt lat="43.55754" lon="1.17645">
        <ele>202</ele>
        <time>2020-01-28T18:08:08Z</time>
      </trkpt>
      <trkpt lat="43.55748" lon="1.17658">
        <ele>202</ele>
        <time>2020-01-28T18:08:17Z</time>
      </trkpt>
      <trkpt lat="43.55744" lon="1.17671">
        <ele>202</ele>
        <time>2020-01-28T18:08:25Z</time>
      </trkpt>
      <trkpt lat="43.55738" lon="1.17684">
        <ele>200</ele>
        <time>2020-01-28T18:08:34Z</time>
      </trkpt>
      <trkpt lat="43.55741" lon="1.17697">
        <ele>199</ele>
        <time>2020-01-28T18:08:42Z</time>
      </trkpt>
      <trkpt lat="43.55744" lon="1.17711">
        <ele>196</ele>
        <time>2020-01-28T18:08:50Z</time>
      </trkpt>
      <trkpt lat="43.55748" lon="1.17722">
        <ele>194</ele>
        <time>2020-01-28T18:08:58Z</time>
      </trkpt>
    </trkseg>
  </trk>
</gpx>